PWSweather.com
Personal Weather Stations
Station Observations
EI4HQ
Cork Harbour, CobhIE

Cork HarbourCobhIE

Lat: 51.85, Lon: -8.29

Elevation: 252

Station Type: Davis Vantage Pro2

http://www.corkharbourweather.ie

High Low Average
Temperature 40.8°F4.9°C 30.2°F-1.0°C 35.9°F2.2°C
Dew Point 35.1°F1.7°C 27.1°F-2.7°C 31.6°F-0.2°C
Winds 22.0 mph 35.4 kmh Calm Calm 11.0 mph NNW17.7 kmh NNW
Wind Gusts 36.0 mph57.9 kmh 1.0 mph1.6 kmh 18.0 mph29.0 kmh
Humidity 95% 66% 84%
Pressure 30.32 in1026.8 mb 30.16 in1021.3 mb -
Precipitation 0.04 in1.0 mm - -
Hour Temp Dew Point Humidity Winds Wind Gusts Pressure Precip Precip Rate Daily Precip Total
12:00 AM 34.5°F1.4°C 32.7°F0.4°C 93% 1.0 mph WSW1.6 kmh WSW 4.0 mph6.4 kmh 30.20 in1022.7 mb 0.03 in0.8 mm 0.00 in0.0 mm 0.03 in0.8 mm
12:03 AM 34.5°F1.4°C 32.7°F0.4°C 93% 1.0 mph WSW1.6 kmh WSW 4.0 mph6.4 kmh 30.20 in1022.7 mb 0.03 in0.8 mm 0.00 in0.0 mm 0.03 in0.8 mm
12:06 AM 34.5°F1.4°C 32.7°F0.4°C 93% 2.0 mph WSW3.2 kmh WSW 4.0 mph6.4 kmh 30.20 in1022.7 mb 0.04 in1.0 mm 0.20 in5.1 mm 0.01 in0.3 mm
12:09 AM 34.5°F1.4°C 32.7°F0.4°C 93% 2.0 mph WSW3.2 kmh WSW 4.0 mph6.4 kmh 30.20 in1022.7 mb 0.04 in1.0 mm 0.00 in0.0 mm 0.01 in0.3 mm
12:12 AM 34.5°F1.4°C 33.1°F0.6°C 94% 2.0 mph WSW3.2 kmh WSW 4.0 mph6.4 kmh 30.20 in1022.7 mb 0.03 in0.8 mm 0.00 in0.0 mm 0.01 in0.3 mm
12:15 AM 34.5°F1.4°C 32.7°F0.4°C 93% 2.0 mph WSW3.2 kmh WSW 4.0 mph6.4 kmh 30.20 in1022.7 mb 0.04 in1.0 mm 0.20 in5.1 mm 0.02 in0.5 mm
12:18 AM 34.5°F1.4°C 32.7°F0.4°C 93% 2.0 mph SW3.2 kmh SW 4.0 mph6.4 kmh 30.20 in1022.7 mb 0.04 in1.0 mm 0.00 in0.0 mm 0.02 in0.5 mm
12:21 AM 34.5°F1.4°C 33.1°F0.6°C 94% 2.0 mph SW3.2 kmh SW 3.0 mph4.8 kmh 30.20 in1022.7 mb 0.04 in1.0 mm 0.00 in0.0 mm 0.02 in0.5 mm
12:24 AM 34.5°F1.4°C 33.1°F0.6°C 94% 2.0 mph SW3.2 kmh SW 3.0 mph4.8 kmh 30.20 in1022.7 mb 0.04 in1.0 mm 0.00 in0.0 mm 0.02 in0.5 mm
12:27 AM 34.5°F1.4°C 33.1°F0.6°C 94% 1.0 mph SW1.6 kmh SW 3.0 mph4.8 kmh 30.20 in1022.7 mb 0.04 in1.0 mm 0.00 in0.0 mm 0.02 in0.5 mm
12:30 AM 34.5°F1.4°C 33.1°F0.6°C 94% 1.0 mph SW1.6 kmh SW 3.0 mph4.8 kmh 30.20 in1022.7 mb 0.04 in1.0 mm 0.00 in0.0 mm 0.02 in0.5 mm
12:33 AM 34.7°F1.5°C 33.1°F0.6°C 94% 1.0 mph SW1.6 kmh SW 3.0 mph4.8 kmh 30.20 in1022.7 mb 0.04 in1.0 mm 0.00 in0.0 mm 0.02 in0.5 mm
12:36 AM 34.7°F1.5°C 33.1°F0.6°C 94% 1.0 mph SW1.6 kmh SW 3.0 mph4.8 kmh 30.20 in1022.7 mb 0.04 in1.0 mm 0.00 in0.0 mm 0.02 in0.5 mm
12:39 AM 34.7°F1.5°C 33.1°F0.6°C 94% 1.0 mph SW1.6 kmh SW 3.0 mph4.8 kmh 30.20 in1022.7 mb 0.05 in1.3 mm 0.20 in5.1 mm 0.03 in0.8 mm
12:42 AM 34.7°F1.5°C 33.1°F0.6°C 94% 1.0 mph SW1.6 kmh SW 3.0 mph4.8 kmh 30.19 in1022.4 mb 0.05 in1.3 mm 0.00 in0.0 mm 0.03 in0.8 mm
12:45 AM 34.7°F1.5°C 33.1°F0.6°C 94% 1.0 mph SW1.6 kmh SW 2.0 mph3.2 kmh 30.19 in1022.4 mb 0.04 in1.0 mm 0.00 in0.0 mm 0.03 in0.8 mm
12:48 AM 34.9°F1.6°C 33.3°F0.7°C 94% Calm Calm 2.0 mph3.2 kmh 30.20 in1022.7 mb 0.04 in1.0 mm 0.00 in0.0 mm 0.03 in0.8 mm
12:51 AM 34.9°F1.6°C 33.3°F0.7°C 94% Calm Calm 1.0 mph1.6 kmh 30.20 in1022.7 mb 0.04 in1.0 mm 0.00 in0.0 mm 0.03 in0.8 mm
12:54 AM 34.9°F1.6°C 33.3°F0.7°C 94% Calm Calm 2.0 mph3.2 kmh 30.19 in1022.4 mb 0.03 in0.8 mm 0.00 in0.0 mm 0.03 in0.8 mm
12:57 AM 34.9°F1.6°C 33.3°F0.7°C 94% Calm Calm 2.0 mph3.2 kmh 30.19 in1022.4 mb 0.03 in0.8 mm 0.00 in0.0 mm 0.03 in0.8 mm
01:00 AM 34.9°F1.6°C 33.3°F0.7°C 94% Calm Calm 2.0 mph3.2 kmh 30.20 in1022.7 mb 0.03 in0.8 mm 0.00 in0.0 mm 0.03 in0.8 mm
01:03 AM 34.9°F1.6°C 33.3°F0.7°C 94% Calm Calm 2.0 mph3.2 kmh 30.19 in1022.4 mb 0.03 in0.8 mm 0.00 in0.0 mm 0.03 in0.8 mm
01:06 AM 35.1°F1.7°C 33.4°F0.8°C 94% 1.0 mph SW1.6 kmh SW 2.0 mph3.2 kmh 30.19 in1022.4 mb 0.02 in0.5 mm 0.00 in0.0 mm 0.03 in0.8 mm
01:09 AM 35.1°F1.7°C 33.4°F0.8°C 94% 1.0 mph SW1.6 kmh SW 2.0 mph3.2 kmh 30.19 in1022.4 mb 0.02 in0.5 mm 0.00 in0.0 mm 0.03 in0.8 mm
01:12 AM 35.1°F1.7°C 33.4°F0.8°C 94% 1.0 mph SW1.6 kmh SW 3.0 mph4.8 kmh 30.19 in1022.4 mb 0.02 in0.5 mm 0.00 in0.0 mm 0.03 in0.8 mm
01:15 AM 35.1°F1.7°C 33.4°F0.8°C 94% 1.0 mph SW1.6 kmh SW 3.0 mph4.8 kmh 30.19 in1022.4 mb 0.02 in0.5 mm 0.00 in0.0 mm 0.03 in0.8 mm
01:18 AM 35.1°F1.7°C 33.6°F0.9°C 94% 1.0 mph WSW1.6 kmh WSW 6.0 mph9.7 kmh 30.19 in1022.4 mb 0.02 in0.5 mm 0.00 in0.0 mm 0.03 in0.8 mm
01:21 AM 35.1°F1.7°C 33.4°F0.8°C 94% 1.0 mph W1.6 kmh W 6.0 mph9.7 kmh 30.19 in1022.4 mb 0.02 in0.5 mm 0.00 in0.0 mm 0.03 in0.8 mm
01:24 AM 35.1°F1.7°C 33.4°F0.8°C 94% 1.0 mph W1.6 kmh W 6.0 mph9.7 kmh 30.19 in1022.4 mb 0.02 in0.5 mm 0.00 in0.0 mm 0.03 in0.8 mm
01:27 AM 35.1°F1.7°C 33.4°F0.8°C 94% 1.0 mph WNW1.6 kmh WNW 3.0 mph4.8 kmh 30.18 in1022.0 mb 0.01 in0.3 mm 0.00 in0.0 mm 0.03 in0.8 mm
01:30 AM 35.1°F1.7°C 33.4°F0.8°C 94% 2.0 mph NW3.2 kmh NW 5.0 mph8.0 kmh 30.18 in1022.0 mb 0.01 in0.3 mm 0.00 in0.0 mm 0.03 in0.8 mm
01:33 AM 35.1°F1.7°C 33.4°F0.8°C 94% 2.0 mph NW3.2 kmh NW 8.0 mph12.9 kmh 30.18 in1022.0 mb 0.01 in0.3 mm 0.00 in0.0 mm 0.03 in0.8 mm
01:36 AM 35.1°F1.7°C 33.4°F0.8°C 94% 3.0 mph NNW4.8 kmh NNW 8.0 mph12.9 kmh 30.18 in1022.0 mb 0.01 in0.3 mm 0.00 in0.0 mm 0.03 in0.8 mm
01:39 AM 35.1°F1.7°C 33.4°F0.8°C 94% 4.0 mph NNW6.4 kmh NNW 8.0 mph12.9 kmh 30.18 in1022.0 mb 0.00 in0.0 mm 0.00 in0.0 mm 0.03 in0.8 mm
01:42 AM 35.1°F1.7°C 33.4°F0.8°C 94% 4.0 mph NNW6.4 kmh NNW 9.0 mph14.5 kmh 30.18 in1022.0 mb 0.00 in0.0 mm 0.00 in0.0 mm 0.03 in0.8 mm
01:45 AM 35.1°F1.7°C 33.4°F0.8°C 94% 4.0 mph NNW6.4 kmh NNW 9.0 mph14.5 kmh 30.18 in1022.0 mb 0.00 in0.0 mm 0.00 in0.0 mm 0.03 in0.8 mm
01:48 AM 35.1°F1.7°C 33.6°F0.9°C 94% 4.0 mph NNW6.4 kmh NNW 9.0 mph14.5 kmh 30.18 in1022.0 mb 0.00 in0.0 mm 0.00 in0.0 mm 0.03 in0.8 mm
01:51 AM 35.1°F1.7°C 33.6°F0.9°C 94% 5.0 mph NNW8.0 kmh NNW 11.0 mph17.7 kmh 30.18 in1022.0 mb 0.00 in0.0 mm 0.00 in0.0 mm 0.03 in0.8 mm
01:54 AM 35.1°F1.7°C 33.6°F0.9°C 94% 6.0 mph NNW9.7 kmh NNW 13.0 mph20.9 kmh 30.18 in1022.0 mb 0.00 in0.0 mm 0.00 in0.0 mm 0.03 in0.8 mm
01:57 AM 35.2°F1.8°C 33.6°F0.9°C 94% 7.0 mph NNW11.3 kmh NNW 13.0 mph20.9 kmh 30.18 in1022.0 mb 0.00 in0.0 mm 0.00 in0.0 mm 0.03 in0.8 mm
02:00 AM 35.2°F1.8°C 34.0°F1.1°C 95% 8.0 mph NNW12.9 kmh NNW 13.0 mph20.9 kmh 30.18 in1022.0 mb 0.00 in0.0 mm 0.00 in0.0 mm 0.03 in0.8 mm
02:03 AM 35.2°F1.8°C 33.6°F0.9°C 94% 8.0 mph NNW12.9 kmh NNW 12.0 mph19.3 kmh 30.18 in1022.0 mb 0.00 in0.0 mm 0.00 in0.0 mm 0.03 in0.8 mm
02:06 AM 35.2°F1.8°C 33.6°F0.9°C 94% 8.0 mph NNW12.9 kmh NNW 12.0 mph19.3 kmh 30.18 in1022.0 mb 0.00 in0.0 mm 0.00 in0.0 mm 0.03 in0.8 mm
02:09 AM 35.2°F1.8°C 33.6°F0.9°C 94% 8.0 mph NNW12.9 kmh NNW 12.0 mph19.3 kmh 30.18 in1022.0 mb 0.00 in0.0 mm 0.00 in0.0 mm 0.03 in0.8 mm
02:12 AM 35.1°F1.7°C 33.6°F0.9°C 94% 8.0 mph NNW12.9 kmh NNW 13.0 mph20.9 kmh 30.18 in1022.0 mb 0.00 in0.0 mm 0.00 in0.0 mm 0.03 in0.8 mm
02:15 AM 35.1°F1.7°C 33.6°F0.9°C 94% 8.0 mph NNW12.9 kmh NNW 13.0 mph20.9 kmh 30.18 in1022.0 mb 0.00 in0.0 mm 0.00 in0.0 mm 0.03 in0.8 mm
02:18 AM 35.1°F1.7°C 33.4°F0.8°C 94% 8.0 mph NNW12.9 kmh NNW 13.0 mph20.9 kmh 30.18 in1022.0 mb 0.00 in0.0 mm 0.00 in0.0 mm 0.03 in0.8 mm
02:21 AM 34.9°F1.6°C 33.6°F0.9°C 95% 8.0 mph NNW12.9 kmh NNW 13.0 mph20.9 kmh 30.18 in1022.0 mb 0.00 in0.0 mm 0.00 in0.0 mm 0.03 in0.8 mm
02:24 AM 34.9°F1.6°C 33.6°F0.9°C 95% 9.0 mph NNW14.5 kmh NNW 13.0 mph20.9 kmh 30.18 in1022.0 mb 0.00 in0.0 mm 0.00 in0.0 mm 0.03 in0.8 mm
02:27 AM 34.9°F1.6°C 33.6°F0.9°C 95% 9.0 mph N14.5 kmh N 14.0 mph22.5 kmh 30.18 in1022.0 mb 0.00 in0.0 mm 0.00 in0.0 mm 0.03 in0.8 mm
02:30 AM 34.9°F1.6°C 33.6°F0.9°C 95% 9.0 mph N14.5 kmh N 16.0 mph25.7 kmh 30.18 in1022.0 mb 0.00 in0.0 mm 0.00 in0.0 mm 0.03 in0.8 mm
02:33 AM 34.9°F1.6°C 33.6°F0.9°C 95% 10.0 mph N16.1 kmh N 19.0 mph30.6 kmh 30.18 in1022.0 mb 0.00 in0.0 mm 0.00 in0.0 mm 0.03 in0.8 mm
02:36 AM 35.1°F1.7°C 33.8°F1.0°C 95% 10.0 mph N16.1 kmh N 19.0 mph30.6 kmh 30.18 in1022.0 mb 0.00 in0.0 mm 0.00 in0.0 mm 0.03 in0.8 mm
02:39 AM 35.1°F1.7°C 33.8°F1.0°C 95% 11.0 mph N17.7 kmh N 19.0 mph30.6 kmh 30.19 in1022.4 mb 0.00 in0.0 mm 0.00 in0.0 mm 0.03 in0.8 mm
02:42 AM 35.1°F1.7°C 33.8°F1.0°C 95% 10.0 mph N16.1 kmh N 15.0 mph24.1 kmh 30.19 in1022.4 mb 0.00 in0.0 mm 0.00 in0.0 mm 0.03 in0.8 mm
02:45 AM 35.1°F1.7°C 33.8°F1.0°C 95% 10.0 mph N16.1 kmh N 15.0 mph24.1 kmh 30.19 in1022.4 mb 0.00 in0.0 mm 0.00 in0.0 mm 0.03 in0.8 mm
02:48 AM 35.1°F1.7°C 33.8°F1.0°C 95% 9.0 mph NNW14.5 kmh NNW 14.0 mph22.5 kmh 30.19 in1022.4 mb 0.00 in0.0 mm 0.00 in0.0 mm 0.03 in0.8 mm
02:51 AM 35.1°F1.7°C 33.8°F1.0°C 95% 8.0 mph NNW12.9 kmh NNW 14.0 mph22.5 kmh 30.19 in1022.4 mb 0.00 in0.0 mm 0.00 in0.0 mm 0.03 in0.8 mm
02:54 AM 35.1°F1.7°C 33.8°F1.0°C 95% 8.0 mph NNW12.9 kmh NNW 14.0 mph22.5 kmh 30.19 in1022.4 mb 0.00 in0.0 mm 0.00 in0.0 mm 0.03 in0.8 mm
02:57 AM 35.1°F1.7°C 33.8°F1.0°C 95% 7.0 mph NNW11.3 kmh NNW 14.0 mph22.5 kmh 30.18 in1022.0 mb 0.00 in0.0 mm 0.00 in0.0 mm 0.03 in0.8 mm
03:00 AM 35.1°F1.7°C 33.8°F1.0°C 95% 8.0 mph NNW12.9 kmh NNW 15.0 mph24.1 kmh 30.18 in1022.0 mb 0.00 in0.0 mm 0.00 in0.0 mm 0.03 in0.8 mm
03:03 AM 35.2°F1.8°C 34.0°F1.1°C 95% 9.0 mph N14.5 kmh N 15.0 mph24.1 kmh 30.18 in1022.0 mb 0.00 in0.0 mm 0.00 in0.0 mm 0.03 in0.8 mm
03:06 AM 35.4°F1.9°C 34.2°F1.2°C 95% 10.0 mph N16.1 kmh N 15.0 mph24.1 kmh 30.18 in1022.0 mb 0.00 in0.0 mm 0.00 in0.0 mm 0.03 in0.8 mm
03:09 AM 35.4°F1.9°C 34.2°F1.2°C 95% 10.0 mph N16.1 kmh N 15.0 mph24.1 kmh 30.18 in1022.0 mb 0.00 in0.0 mm 0.00 in0.0 mm 0.03 in0.8 mm
03:12 AM 35.6°F2.0°C 34.3°F1.3°C 95% 9.0 mph N14.5 kmh N 14.0 mph22.5 kmh 30.18 in1022.0 mb 0.00 in0.0 mm 0.00 in0.0 mm 0.03 in0.8 mm
03:15 AM 35.8°F2.1°C 34.5°F1.4°C 95% 9.0 mph N14.5 kmh N 14.0 mph22.5 kmh 30.18 in1022.0 mb 0.00 in0.0 mm 0.00 in0.0 mm 0.03 in0.8 mm
03:18 AM 35.8°F2.1°C 34.5°F1.4°C 95% 9.0 mph N14.5 kmh N 14.0 mph22.5 kmh 30.18 in1022.0 mb 0.00 in0.0 mm 0.00 in0.0 mm 0.03 in0.8 mm
03:21 AM 36.0°F2.2°C 34.5°F1.4°C 95% 10.0 mph N16.1 kmh N 15.0 mph24.1 kmh 30.18 in1022.0 mb 0.00 in0.0 mm 0.00 in0.0 mm 0.03 in0.8 mm
03:24 AM 36.0°F2.2°C 34.7°F1.5°C 95% 10.0 mph NNW16.1 kmh NNW 19.0 mph30.6 kmh 30.18 in1022.0 mb 0.00 in0.0 mm 0.00 in0.0 mm 0.03 in0.8 mm
03:27 AM 36.1°F2.3°C 34.9°F1.6°C 95% 10.0 mph NNW16.1 kmh NNW 19.0 mph30.6 kmh 30.18 in1022.0 mb 0.00 in0.0 mm 0.00 in0.0 mm 0.03 in0.8 mm
03:30 AM 36.3°F2.4°C 35.1°F1.7°C 95% 11.0 mph NNW17.7 kmh NNW 19.0 mph30.6 kmh 30.18 in1022.0 mb 0.00 in0.0 mm 0.00 in0.0 mm 0.03 in0.8 mm
03:33 AM 36.3°F2.4°C 35.1°F1.7°C 95% 11.0 mph NNW17.7 kmh NNW 19.0 mph30.6 kmh 30.18 in1022.0 mb 0.01 in0.3 mm 0.20 in5.1 mm 0.04 in1.0 mm
03:36 AM 36.3°F2.4°C 35.1°F1.7°C 95% 11.0 mph NNW17.7 kmh NNW 18.0 mph29.0 kmh 30.18 in1022.0 mb 0.01 in0.3 mm 0.00 in0.0 mm 0.04 in1.0 mm
03:39 AM 36.3°F2.4°C 35.1°F1.7°C 95% 11.0 mph N17.7 kmh N 23.0 mph37.0 kmh 30.18 in1022.0 mb 0.01 in0.3 mm 0.00 in0.0 mm 0.04 in1.0 mm
03:42 AM 36.3°F2.4°C 35.1°F1.7°C 95% 11.0 mph N17.7 kmh N 23.0 mph37.0 kmh 30.17 in1021.7 mb 0.01 in0.3 mm 0.00 in0.0 mm 0.04 in1.0 mm
03:45 AM 36.3°F2.4°C 35.1°F1.7°C 95% 12.0 mph N19.3 kmh N 23.0 mph37.0 kmh 30.17 in1021.7 mb 0.01 in0.3 mm 0.00 in0.0 mm 0.04 in1.0 mm
03:48 AM 36.1°F2.3°C 34.9°F1.6°C 95% 13.0 mph N20.9 kmh N 20.0 mph32.2 kmh 30.17 in1021.7 mb 0.01 in0.3 mm 0.00 in0.0 mm 0.04 in1.0 mm
03:51 AM 36.1°F2.3°C 34.9°F1.6°C 95% 14.0 mph N22.5 kmh N 20.0 mph32.2 kmh 30.17 in1021.7 mb 0.01 in0.3 mm 0.00 in0.0 mm 0.04 in1.0 mm
03:54 AM 36.1°F2.3°C 34.9°F1.6°C 95% 14.0 mph N22.5 kmh N 20.0 mph32.2 kmh 30.17 in1021.7 mb 0.01 in0.3 mm 0.00 in0.0 mm 0.04 in1.0 mm
03:57 AM 36.1°F2.3°C 34.9°F1.6°C 95% 15.0 mph N24.1 kmh N 20.0 mph32.2 kmh 30.17 in1021.7 mb 0.01 in0.3 mm 0.00 in0.0 mm 0.04 in1.0 mm
04:00 AM 36.0°F2.2°C 34.7°F1.5°C 95% 15.0 mph NNW24.1 kmh NNW 23.0 mph37.0 kmh 30.17 in1021.7 mb 0.01 in0.3 mm 0.00 in0.0 mm 0.04 in1.0 mm
04:03 AM 36.0°F2.2°C 34.5°F1.4°C 94% 15.0 mph NNW24.1 kmh NNW 23.0 mph37.0 kmh 30.17 in1021.7 mb 0.01 in0.3 mm 0.00 in0.0 mm 0.04 in1.0 mm
04:06 AM 36.0°F2.2°C 34.3°F1.3°C 94% 15.0 mph NNW24.1 kmh NNW 23.0 mph37.0 kmh 30.17 in1021.7 mb 0.01 in0.3 mm 0.00 in0.0 mm 0.04 in1.0 mm
04:09 AM 36.0°F2.2°C 34.3°F1.3°C 94% 15.0 mph NNW24.1 kmh NNW 23.0 mph37.0 kmh 30.17 in1021.7 mb 0.01 in0.3 mm 0.00 in0.0 mm 0.04 in1.0 mm
04:12 AM 36.0°F2.2°C 34.3°F1.3°C 94% 14.0 mph NNW22.5 kmh NNW 23.0 mph37.0 kmh 30.17 in1021.7 mb 0.01 in0.3 mm 0.00 in0.0 mm 0.04 in1.0 mm
04:15 AM 36.0°F2.2°C 34.3°F1.3°C 94% 15.0 mph NNW24.1 kmh NNW 23.0 mph37.0 kmh 30.17 in1021.7 mb 0.01 in0.3 mm 0.00 in0.0 mm 0.04 in1.0 mm
04:18 AM 36.0°F2.2°C 34.7°F1.5°C 95% 15.0 mph NNW24.1 kmh NNW 28.0 mph45.1 kmh 30.17 in1021.7 mb 0.01 in0.3 mm 0.00 in0.0 mm 0.04 in1.0 mm
04:21 AM 36.1°F2.3°C 34.5°F1.4°C 94% 14.0 mph NNW22.5 kmh NNW 28.0 mph45.1 kmh 30.17 in1021.7 mb 0.01 in0.3 mm 0.00 in0.0 mm 0.04 in1.0 mm
04:24 AM 36.1°F2.3°C 34.5°F1.4°C 94% 14.0 mph NNW22.5 kmh NNW 28.0 mph45.1 kmh 30.17 in1021.7 mb 0.01 in0.3 mm 0.00 in0.0 mm 0.04 in1.0 mm
04:27 AM 36.1°F2.3°C 34.5°F1.4°C 94% 14.0 mph NNW22.5 kmh NNW 25.0 mph40.2 kmh 30.17 in1021.7 mb 0.01 in0.3 mm 0.00 in0.0 mm 0.04 in1.0 mm
04:30 AM 36.1°F2.3°C 34.5°F1.4°C 94% 14.0 mph NNW22.5 kmh NNW 25.0 mph40.2 kmh 30.17 in1021.7 mb 0.01 in0.3 mm 0.00 in0.0 mm 0.04 in1.0 mm
04:33 AM 36.0°F2.2°C 34.5°F1.4°C 94% 15.0 mph NNW24.1 kmh NNW 27.0 mph43.5 kmh 30.16 in1021.3 mb 0.00 in0.0 mm 0.00 in0.0 mm 0.04 in1.0 mm
04:36 AM 36.0°F2.2°C 34.5°F1.4°C 94% 14.0 mph NNW22.5 kmh NNW 27.0 mph43.5 kmh 30.17 in1021.7 mb 0.00 in0.0 mm 0.00 in0.0 mm 0.04 in1.0 mm
04:39 AM 36.0°F2.2°C 34.5°F1.4°C 94% 14.0 mph NNW22.5 kmh NNW 27.0 mph43.5 kmh 30.17 in1021.7 mb 0.00 in0.0 mm 0.00 in0.0 mm 0.04 in1.0 mm
04:42 AM 36.1°F2.3°C 34.5°F1.4°C 94% 15.0 mph NNW24.1 kmh NNW 27.0 mph43.5 kmh 30.17 in1021.7 mb 0.00 in0.0 mm 0.00 in0.0 mm 0.04 in1.0 mm
04:45 AM 36.1°F2.3°C 34.5°F1.4°C 94% 15.0 mph NNW24.1 kmh NNW 24.0 mph38.6 kmh 30.17 in1021.7 mb 0.00 in0.0 mm 0.00 in0.0 mm 0.04 in1.0 mm
04:48 AM 36.1°F2.3°C 34.5°F1.4°C 94% 15.0 mph N24.1 kmh N 24.0 mph38.6 kmh 30.17 in1021.7 mb 0.00 in0.0 mm 0.00 in0.0 mm 0.04 in1.0 mm
04:51 AM 36.1°F2.3°C 34.5°F1.4°C 94% 15.0 mph NNW24.1 kmh NNW 24.0 mph38.6 kmh 30.17 in1021.7 mb 0.00 in0.0 mm 0.00 in0.0 mm 0.04 in1.0 mm
04:54 AM 36.1°F2.3°C 34.3°F1.3°C 93% 13.0 mph NNW20.9 kmh NNW 21.0 mph33.8 kmh 30.18 in1022.0 mb 0.00 in0.0 mm 0.00 in0.0 mm 0.04 in1.0 mm
04:57 AM 36.0°F2.2°C 34.2°F1.2°C 93% 13.0 mph NNW20.9 kmh NNW 21.0 mph33.8 kmh 30.17 in1021.7 mb 0.00 in0.0 mm 0.00 in0.0 mm 0.04 in1.0 mm
05:00 AM 36.0°F2.2°C 34.2°F1.2°C 93% 13.0 mph NNW20.9 kmh NNW 21.0 mph33.8 kmh 30.18 in1022.0 mb 0.00 in0.0 mm 0.00 in0.0 mm 0.04 in1.0 mm
05:03 AM 36.0°F2.2°C 34.2°F1.2°C 93% 12.0 mph NNW19.3 kmh NNW 21.0 mph33.8 kmh 30.17 in1021.7 mb 0.00 in0.0 mm 0.00 in0.0 mm 0.04 in1.0 mm
05:06 AM 36.0°F2.2°C 34.2°F1.2°C 93% 13.0 mph NNW20.9 kmh NNW 21.0 mph33.8 kmh 30.17 in1021.7 mb 0.00 in0.0 mm 0.00 in0.0 mm 0.04 in1.0 mm
05:09 AM 36.0°F2.2°C 34.2°F1.2°C 93% 13.0 mph NNW20.9 kmh NNW 21.0 mph33.8 kmh 30.17 in1021.7 mb 0.00 in0.0 mm 0.00 in0.0 mm 0.04 in1.0 mm
05:12 AM 36.0°F2.2°C 34.2°F1.2°C 93% 13.0 mph NNW20.9 kmh NNW 22.0 mph35.4 kmh 30.17 in1021.7 mb 0.00 in0.0 mm 0.00 in0.0 mm 0.04 in1.0 mm
05:15 AM 36.0°F2.2°C 34.2°F1.2°C 93% 13.0 mph NNW20.9 kmh NNW 22.0 mph35.4 kmh 30.18 in1022.0 mb 0.00 in0.0 mm 0.00 in0.0 mm 0.04 in1.0 mm
05:18 AM 36.0°F2.2°C 34.2°F1.2°C 93% 13.0 mph NNW20.9 kmh NNW 22.0 mph35.4 kmh 30.18 in1022.0 mb 0.00 in0.0 mm 0.00 in0.0 mm 0.04 in1.0 mm
05:21 AM 36.0°F2.2°C 34.2°F1.2°C 93% 13.0 mph NNW20.9 kmh NNW 18.0 mph29.0 kmh 30.18 in1022.0 mb 0.00 in0.0 mm 0.00 in0.0 mm 0.04 in1.0 mm
05:24 AM 35.8°F2.1°C 34.0°F1.1°C 93% 13.0 mph NNW20.9 kmh NNW 18.0 mph29.0 kmh 30.18 in1022.0 mb 0.00 in0.0 mm 0.00 in0.0 mm 0.04 in1.0 mm
05:27 AM 35.8°F2.1°C 33.8°F1.0°C 93% 13.0 mph NNW20.9 kmh NNW 18.0 mph29.0 kmh 30.18 in1022.0 mb 0.00 in0.0 mm 0.00 in0.0 mm 0.04 in1.0 mm
05:30 AM 35.6°F2.0°C 33.8°F1.0°C 93% 12.0 mph NNW19.3 kmh NNW 20.0 mph32.2 kmh 30.18 in1022.0 mb 0.00 in0.0 mm 0.00 in0.0 mm 0.04 in1.0 mm
05:33 AM 35.6°F2.0°C 33.8°F1.0°C 93% 12.0 mph NNW19.3 kmh NNW 20.0 mph32.2 kmh 30.18 in1022.0 mb 0.00 in0.0 mm 0.00 in0.0 mm 0.04 in1.0 mm
05:36 AM 35.4°F1.9°C 33.6°F0.9°C 93% 12.0 mph NNW19.3 kmh NNW 20.0 mph32.2 kmh 30.18 in1022.0 mb 0.00 in0.0 mm 0.00 in0.0 mm 0.04 in1.0 mm
05:39 AM 35.4°F1.9°C 33.6°F0.9°C 93% 12.0 mph NNW19.3 kmh NNW 19.0 mph30.6 kmh 30.18 in1022.0 mb 0.00 in0.0 mm 0.00 in0.0 mm 0.04 in1.0 mm
05:42 AM 35.4°F1.9°C 33.6°F0.9°C 93% 11.0 mph NNW17.7 kmh NNW 19.0 mph30.6 kmh 30.18 in1022.0 mb 0.00 in0.0 mm 0.00 in0.0 mm 0.04 in1.0 mm
05:45 AM 35.2°F1.8°C 33.4°F0.8°C 93% 11.0 mph NNW17.7 kmh NNW 18.0 mph29.0 kmh 30.18 in1022.0 mb 0.00 in0.0 mm 0.00 in0.0 mm 0.04 in1.0 mm
05:48 AM 35.2°F1.8°C 33.4°F0.8°C 93% 11.0 mph NNW17.7 kmh NNW 18.0 mph29.0 kmh 30.18 in1022.0 mb 0.00 in0.0 mm 0.00 in0.0 mm 0.04 in1.0 mm
05:51 AM 35.2°F1.8°C 33.4°F0.8°C 93% 12.0 mph NNW19.3 kmh NNW 19.0 mph30.6 kmh 30.19 in1022.4 mb 0.00 in0.0 mm 0.00 in0.0 mm 0.04 in1.0 mm
05:54 AM 35.2°F1.8°C 33.4°F0.8°C 93% 12.0 mph NNW19.3 kmh NNW 19.0 mph30.6 kmh 30.19 in1022.4 mb 0.00 in0.0 mm 0.00 in0.0 mm 0.04 in1.0 mm
05:57 AM 35.2°F1.8°C 33.4°F0.8°C 93% 13.0 mph NNW20.9 kmh NNW 20.0 mph32.2 kmh 30.18 in1022.0 mb 0.00 in0.0 mm 0.00 in0.0 mm 0.04 in1.0 mm
06:00 AM 35.2°F1.8°C 33.4°F0.8°C 93% 13.0 mph NNW20.9 kmh NNW 21.0 mph33.8 kmh 30.18 in1022.0 mb 0.00 in0.0 mm 0.00 in0.0 mm 0.04 in1.0 mm
06:03 AM 35.4°F1.9°C 33.6°F0.9°C 93% 14.0 mph NNW22.5 kmh NNW 22.0 mph35.4 kmh 30.18 in1022.0 mb 0.00 in0.0 mm 0.00 in0.0 mm 0.04 in1.0 mm
06:06 AM 35.4°F1.9°C 33.3°F0.7°C 92% 14.0 mph NNW22.5 kmh NNW 22.0 mph35.4 kmh 30.19 in1022.4 mb 0.00 in0.0 mm 0.00 in0.0 mm 0.04 in1.0 mm
06:09 AM 35.4°F1.9°C 33.3°F0.7°C 92% 13.0 mph NNW20.9 kmh NNW 22.0 mph35.4 kmh 30.19 in1022.4 mb 0.00 in0.0 mm 0.00 in0.0 mm 0.04 in1.0 mm
06:12 AM 35.4°F1.9°C 33.3°F0.7°C 92% 13.0 mph NNW20.9 kmh NNW 22.0 mph35.4 kmh 30.19 in1022.4 mb 0.00 in0.0 mm 0.00 in0.0 mm 0.04 in1.0 mm
06:15 AM 35.2°F1.8°C 33.3°F0.7°C 92% 12.0 mph NNW19.3 kmh NNW 20.0 mph32.2 kmh 30.19 in1022.4 mb 0.00 in0.0 mm 0.00 in0.0 mm 0.04 in1.0 mm
06:18 AM 35.2°F1.8°C 33.1°F0.6°C 92% 12.0 mph NNW19.3 kmh NNW 17.0 mph27.4 kmh 30.19 in1022.4 mb 0.00 in0.0 mm 0.00 in0.0 mm 0.04 in1.0 mm
06:21 AM 35.2°F1.8°C 33.1°F0.6°C 92% 11.0 mph N17.7 kmh N 17.0 mph27.4 kmh 30.19 in1022.4 mb 0.00 in0.0 mm 0.00 in0.0 mm 0.04 in1.0 mm
06:24 AM 35.2°F1.8°C 33.3°F0.7°C 92% 11.0 mph N17.7 kmh N 17.0 mph27.4 kmh 30.19 in1022.4 mb 0.00 in0.0 mm 0.00 in0.0 mm 0.04 in1.0 mm
06:27 AM 35.2°F1.8°C 33.1°F0.6°C 92% 11.0 mph NNW17.7 kmh NNW 17.0 mph27.4 kmh 30.19 in1022.4 mb 0.00 in0.0 mm 0.00 in0.0 mm 0.04 in1.0 mm
06:30 AM 35.2°F1.8°C 33.1°F0.6°C 92% 11.0 mph NNW17.7 kmh NNW 19.0 mph30.6 kmh 30.19 in1022.4 mb 0.00 in0.0 mm 0.00 in0.0 mm 0.04 in1.0 mm
06:33 AM 35.2°F1.8°C 32.9°F0.5°C 91% 11.0 mph NNW17.7 kmh NNW 23.0 mph37.0 kmh 30.19 in1022.4 mb 0.00 in0.0 mm 0.00 in0.0 mm 0.04 in1.0 mm
06:36 AM 35.2°F1.8°C 32.9°F0.5°C 91% 13.0 mph NNW20.9 kmh NNW 24.0 mph38.6 kmh 30.18 in1022.0 mb 0.00 in0.0 mm 0.00 in0.0 mm 0.04 in1.0 mm
06:39 AM 35.2°F1.8°C 32.9°F0.5°C 91% 14.0 mph NNW22.5 kmh NNW 24.0 mph38.6 kmh 30.19 in1022.4 mb 0.00 in0.0 mm 0.00 in0.0 mm 0.04 in1.0 mm
06:42 AM 35.2°F1.8°C 32.9°F0.5°C 91% 14.0 mph NNW22.5 kmh NNW 24.0 mph38.6 kmh 30.19 in1022.4 mb 0.00 in0.0 mm 0.00 in0.0 mm 0.04 in1.0 mm
06:45 AM 35.2°F1.8°C 32.9°F0.5°C 91% 13.0 mph NNW20.9 kmh NNW 23.0 mph37.0 kmh 30.19 in1022.4 mb 0.00 in0.0 mm 0.00 in0.0 mm 0.04 in1.0 mm
06:48 AM 35.2°F1.8°C 32.9°F0.5°C 91% 13.0 mph NNW20.9 kmh NNW 21.0 mph33.8 kmh 30.19 in1022.4 mb 0.00 in0.0 mm 0.00 in0.0 mm 0.04 in1.0 mm
06:51 AM 35.2°F1.8°C 32.9°F0.5°C 91% 13.0 mph NNW20.9 kmh NNW 23.0 mph37.0 kmh 30.19 in1022.4 mb 0.00 in0.0 mm 0.00 in0.0 mm 0.04 in1.0 mm
06:54 AM 35.2°F1.8°C 32.9°F0.5°C 91% 14.0 mph NNW22.5 kmh NNW 23.0 mph37.0 kmh 30.19 in1022.4 mb 0.00 in0.0 mm 0.00 in0.0 mm 0.04 in1.0 mm
06:57 AM 35.2°F1.8°C 32.9°F0.5°C 91% 14.0 mph NNW22.5 kmh NNW 23.0 mph37.0 kmh 30.19 in1022.4 mb 0.00 in0.0 mm 0.00 in0.0 mm 0.04 in1.0 mm
07:00 AM 35.2°F1.8°C 32.5°F0.3°C 90% 15.0 mph NNW24.1 kmh NNW 26.0 mph41.8 kmh 30.19 in1022.4 mb 0.00 in0.0 mm 0.00 in0.0 mm 0.04 in1.0 mm
07:03 AM 35.2°F1.8°C 32.7°F0.4°C 90% 16.0 mph NNW25.7 kmh NNW 26.0 mph41.8 kmh 30.19 in1022.4 mb 0.00 in0.0 mm 0.00 in0.0 mm 0.04 in1.0 mm
07:06 AM 35.2°F1.8°C 32.7°F0.4°C 90% 16.0 mph NNW25.7 kmh NNW 26.0 mph41.8 kmh 30.19 in1022.4 mb 0.00 in0.0 mm 0.00 in0.0 mm 0.04 in1.0 mm
07:09 AM 35.2°F1.8°C 32.7°F0.4°C 90% 16.0 mph NNW25.7 kmh NNW 26.0 mph41.8 kmh 30.19 in1022.4 mb 0.00 in0.0 mm 0.00 in0.0 mm 0.04 in1.0 mm
07:12 AM 35.2°F1.8°C 32.7°F0.4°C 90% 15.0 mph NNW24.1 kmh NNW 26.0 mph41.8 kmh 30.20 in1022.7 mb 0.00 in0.0 mm 0.00 in0.0 mm 0.04 in1.0 mm
07:15 AM 35.2°F1.8°C 32.7°F0.4°C 90% 16.0 mph NNW25.7 kmh NNW 26.0 mph41.8 kmh 30.20 in1022.7 mb 0.00 in0.0 mm 0.00 in0.0 mm 0.04 in1.0 mm
07:18 AM 35.2°F1.8°C 32.7°F0.4°C 90% 16.0 mph NNW25.7 kmh NNW 26.0 mph41.8 kmh 30.19 in1022.4 mb 0.00 in0.0 mm 0.00 in0.0 mm 0.04 in1.0 mm
07:21 AM 35.2°F1.8°C 32.5°F0.3°C 90% 16.0 mph NNW25.7 kmh NNW 26.0 mph41.8 kmh 30.20 in1022.7 mb 0.00 in0.0 mm 0.00 in0.0 mm 0.04 in1.0 mm
07:24 AM 35.2°F1.8°C 32.5°F0.3°C 90% 16.0 mph NNW25.7 kmh NNW 26.0 mph41.8 kmh 30.20 in1022.7 mb 0.00 in0.0 mm 0.00 in0.0 mm 0.04 in1.0 mm
07:27 AM 35.2°F1.8°C 32.5°F0.3°C 90% 16.0 mph NNW25.7 kmh NNW 26.0 mph41.8 kmh 30.20 in1022.7 mb 0.00 in0.0 mm 0.00 in0.0 mm 0.04 in1.0 mm
07:30 AM 35.1°F1.7°C 32.5°F0.3°C 90% 16.0 mph NNW25.7 kmh NNW 26.0 mph41.8 kmh 30.20 in1022.7 mb 0.00 in0.0 mm 0.00 in0.0 mm 0.04 in1.0 mm
07:33 AM 35.1°F1.7°C 32.5°F0.3°C 90% 16.0 mph NNW25.7 kmh NNW 26.0 mph41.8 kmh 30.20 in1022.7 mb 0.00 in0.0 mm 0.00 in0.0 mm 0.04 in1.0 mm
07:36 AM 35.1°F1.7°C 32.5°F0.3°C 90% 16.0 mph NNW25.7 kmh NNW 26.0 mph41.8 kmh 30.20 in1022.7 mb 0.00 in0.0 mm 0.00 in0.0 mm 0.04 in1.0 mm
07:39 AM 35.1°F1.7°C 32.5°F0.3°C 90% 15.0 mph NNW24.1 kmh NNW 24.0 mph38.6 kmh 30.20 in1022.7 mb 0.00 in0.0 mm 0.00 in0.0 mm 0.04 in1.0 mm
07:42 AM 35.1°F1.7°C 32.4°F0.2°C 90% 15.0 mph NNW24.1 kmh NNW 25.0 mph40.2 kmh 30.20 in1022.7 mb 0.00 in0.0 mm 0.00 in0.0 mm 0.04 in1.0 mm
07:45 AM 35.1°F1.7°C 32.5°F0.3°C 90% 15.0 mph NNW24.1 kmh NNW 25.0 mph40.2 kmh 30.21 in1023.0 mb 0.00 in0.0 mm 0.00 in0.0 mm 0.04 in1.0 mm
07:48 AM 35.1°F1.7°C 32.0°F0.0°C 89% 15.0 mph NNW24.1 kmh NNW 25.0 mph40.2 kmh 30.21 in1023.0 mb 0.00 in0.0 mm 0.00 in0.0 mm 0.04 in1.0 mm
07:51 AM 35.1°F1.7°C 32.4°F0.2°C 90% 14.0 mph NNW22.5 kmh NNW 25.0 mph40.2 kmh 30.21 in1023.0 mb 0.00 in0.0 mm 0.00 in0.0 mm 0.04 in1.0 mm
07:54 AM 35.1°F1.7°C 32.4°F0.2°C 90% 13.0 mph NNW20.9 kmh NNW 21.0 mph33.8 kmh 30.21 in1023.0 mb 0.00 in0.0 mm 0.00 in0.0 mm 0.04 in1.0 mm
07:57 AM 35.1°F1.7°C 32.0°F0.0°C 89% 12.0 mph N19.3 kmh N 19.0 mph30.6 kmh 30.22 in1023.4 mb 0.00 in0.0 mm 0.00 in0.0 mm 0.04 in1.0 mm
08:00 AM 35.1°F1.7°C 32.4°F0.2°C 90% 12.0 mph N19.3 kmh N 19.0 mph30.6 kmh 30.21 in1023.0 mb 0.00 in0.0 mm 0.00 in0.0 mm 0.04 in1.0 mm
08:03 AM 34.9°F1.6°C 32.0°F0.0°C 89% 11.0 mph N17.7 kmh N 18.0 mph29.0 kmh 30.21 in1023.0 mb 0.00 in0.0 mm 0.00 in0.0 mm 0.04 in1.0 mm
08:06 AM 34.9°F1.6°C 32.0°F0.0°C 89% 12.0 mph N19.3 kmh N 18.0 mph29.0 kmh 30.22 in1023.4 mb 0.00 in0.0 mm 0.00 in0.0 mm 0.04 in1.0 mm
08:09 AM 34.9°F1.6°C 32.0°F0.0°C 89% 13.0 mph NNW20.9 kmh NNW 20.0 mph32.2 kmh 30.21 in1023.0 mb 0.00 in0.0 mm 0.00 in0.0 mm 0.04 in1.0 mm
08:12 AM 34.9°F1.6°C 32.0°F0.0°C 89% 13.0 mph N20.9 kmh N 22.0 mph35.4 kmh 30.21 in1023.0 mb 0.00 in0.0 mm 0.00 in0.0 mm 0.04 in1.0 mm
08:15 AM 35.1°F1.7°C 32.0°F0.0°C 89% 13.0 mph N20.9 kmh N 22.0 mph35.4 kmh 30.22 in1023.4 mb 0.00 in0.0 mm 0.00 in0.0 mm 0.04 in1.0 mm
08:18 AM 35.1°F1.7°C 32.0°F0.0°C 89% 13.0 mph N20.9 kmh N 22.0 mph35.4 kmh 30.22 in1023.4 mb 0.00 in0.0 mm 0.00 in0.0 mm 0.04 in1.0 mm
08:21 AM 35.1°F1.7°C 32.0°F0.0°C 89% 13.0 mph N20.9 kmh N 22.0 mph35.4 kmh 30.22 in1023.4 mb 0.00 in0.0 mm 0.00 in0.0 mm 0.04 in1.0 mm
08:24 AM 34.9°F1.6°C 32.0°F0.0°C 89% 13.0 mph N20.9 kmh N 21.0 mph33.8 kmh 30.22 in1023.4 mb 0.00 in0.0 mm 0.00 in0.0 mm 0.04 in1.0 mm
08:27 AM 34.9°F1.6°C 32.0°F0.0°C 89% 13.0 mph N20.9 kmh N 20.0 mph32.2 kmh 30.22 in1023.4 mb 0.00 in0.0 mm 0.00 in0.0 mm 0.04 in1.0 mm
08:30 AM 34.9°F1.6°C 31.8°F-0.1°C 89% 13.0 mph N20.9 kmh N 20.0 mph32.2 kmh 30.22 in1023.4 mb 0.00 in0.0 mm 0.00 in0.0 mm 0.04 in1.0 mm
08:33 AM 34.9°F1.6°C 31.8°F-0.1°C 89% 12.0 mph N19.3 kmh N 20.0 mph32.2 kmh 30.22 in1023.4 mb 0.00 in0.0 mm 0.00 in0.0 mm 0.04 in1.0 mm
08:36 AM 34.9°F1.6°C 31.8°F-0.1°C 89% 12.0 mph N19.3 kmh N 19.0 mph30.6 kmh 30.22 in1023.4 mb 0.00 in0.0 mm 0.00 in0.0 mm 0.04 in1.0 mm
08:39 AM 34.9°F1.6°C 31.8°F-0.1°C 89% 12.0 mph NNW19.3 kmh NNW 23.0 mph37.0 kmh 30.22 in1023.4 mb 0.00 in0.0 mm 0.00 in0.0 mm 0.04 in1.0 mm
08:42 AM 34.7°F1.5°C 31.8°F-0.1°C 89% 12.0 mph NNW19.3 kmh NNW 23.0 mph37.0 kmh 30.22 in1023.4 mb 0.00 in0.0 mm 0.00 in0.0 mm 0.04 in1.0 mm
08:45 AM 34.7°F1.5°C 31.8°F-0.1°C 89% 13.0 mph NNW20.9 kmh NNW 23.0 mph37.0 kmh 30.22 in1023.4 mb 0.00 in0.0 mm 0.00 in0.0 mm 0.04 in1.0 mm
08:48 AM 34.7°F1.5°C 31.8°F-0.1°C 89% 12.0 mph NNW19.3 kmh NNW 20.0 mph32.2 kmh 30.22 in1023.4 mb 0.00 in0.0 mm 0.00 in0.0 mm 0.04 in1.0 mm
08:51 AM 34.9°F1.6°C 31.8°F-0.1°C 89% 12.0 mph NNW19.3 kmh NNW 20.0 mph32.2 kmh 30.23 in1023.7 mb 0.00 in0.0 mm 0.00 in0.0 mm 0.04 in1.0 mm
08:54 AM 34.9°F1.6°C 32.0°F0.0°C 89% 12.0 mph N19.3 kmh N 19.0 mph30.6 kmh 30.23 in1023.7 mb 0.00 in0.0 mm 0.00 in0.0 mm 0.04 in1.0 mm
08:57 AM 34.9°F1.6°C 32.0°F0.0°C 89% 12.0 mph N19.3 kmh N 18.0 mph29.0 kmh 30.23 in1023.7 mb 0.00 in0.0 mm 0.00 in0.0 mm 0.04 in1.0 mm
09:00 AM 34.9°F1.6°C 32.0°F0.0°C 89% 11.0 mph N17.7 kmh N 18.0 mph29.0 kmh 30.23 in1023.7 mb 0.00 in0.0 mm 0.00 in0.0 mm 0.04 in1.0 mm
09:03 AM 34.9°F1.6°C 32.0°F0.0°C 89% 12.0 mph N19.3 kmh N 18.0 mph29.0 kmh 30.23 in1023.7 mb 0.00 in0.0 mm 0.00 in0.0 mm 0.04 in1.0 mm
09:06 AM 34.9°F1.6°C 32.0°F0.0°C 89% 11.0 mph N17.7 kmh N 18.0 mph29.0 kmh 30.23 in1023.7 mb 0.00 in0.0 mm 0.00 in0.0 mm 0.04 in1.0 mm
09:09 AM 35.1°F1.7°C 32.0°F0.0°C 89% 12.0 mph NNW19.3 kmh NNW 19.0 mph30.6 kmh 30.24 in1024.0 mb 0.00 in0.0 mm 0.00 in0.0 mm 0.04 in1.0 mm
09:12 AM 35.1°F1.7°C 32.0°F0.0°C 89% 12.0 mph NNW19.3 kmh NNW 20.0 mph32.2 kmh 30.24 in1024.0 mb 0.00 in0.0 mm 0.00 in0.0 mm 0.04 in1.0 mm
09:15 AM 35.1°F1.7°C 32.0°F0.0°C 89% 12.0 mph NNW19.3 kmh NNW 20.0 mph32.2 kmh 30.24 in1024.0 mb 0.00 in0.0 mm 0.00 in0.0 mm 0.04 in1.0 mm
09:18 AM 35.1°F1.7°C 32.2°F0.1°C 89% 12.0 mph NNW19.3 kmh NNW 20.0 mph32.2 kmh 30.24 in1024.0 mb 0.00 in0.0 mm 0.00 in0.0 mm 0.04 in1.0 mm
09:21 AM 35.1°F1.7°C 32.2°F0.1°C 89% 12.0 mph NNW19.3 kmh NNW 23.0 mph37.0 kmh 30.24 in1024.0 mb 0.00 in0.0 mm 0.00 in0.0 mm 0.04 in1.0 mm
09:24 AM 35.1°F1.7°C 32.2°F0.1°C 89% 13.0 mph NNW20.9 kmh NNW 23.0 mph37.0 kmh 30.24 in1024.0 mb 0.00 in0.0 mm 0.00 in0.0 mm 0.04 in1.0 mm
09:27 AM 35.1°F1.7°C 31.8°F-0.1°C 88% 13.0 mph NNW20.9 kmh NNW 23.0 mph37.0 kmh 30.24 in1024.0 mb 0.00 in0.0 mm 0.00 in0.0 mm 0.04 in1.0 mm
09:30 AM 35.2°F1.8°C 32.0°F0.0°C 88% 13.0 mph N20.9 kmh N 20.0 mph32.2 kmh 30.24 in1024.0 mb 0.00 in0.0 mm 0.00 in0.0 mm 0.04 in1.0 mm
09:33 AM 35.2°F1.8°C 32.0°F0.0°C 88% 12.0 mph N19.3 kmh N 20.0 mph32.2 kmh 30.24 in1024.0 mb 0.00 in0.0 mm 0.00 in0.0 mm 0.04 in1.0 mm
09:36 AM 35.2°F1.8°C 32.2°F0.1°C 88% 13.0 mph N20.9 kmh N 24.0 mph38.6 kmh 30.24 in1024.0 mb 0.00 in0.0 mm 0.00 in0.0 mm 0.04 in1.0 mm
09:39 AM 35.4°F1.9°C 32.2°F0.1°C 88% 14.0 mph N22.5 kmh N 24.0 mph38.6 kmh 30.24 in1024.0 mb 0.00 in0.0 mm 0.00 in0.0 mm 0.04 in1.0 mm
09:42 AM 35.4°F1.9°C 32.4°F0.2°C 88% 14.0 mph N22.5 kmh N 24.0 mph38.6 kmh 30.24 in1024.0 mb 0.00 in0.0 mm 0.00 in0.0 mm 0.04 in1.0 mm
09:45 AM 35.6°F2.0°C 32.4°F0.2°C 88% 14.0 mph N22.5 kmh N 23.0 mph37.0 kmh 30.25 in1024.4 mb 0.00 in0.0 mm 0.00 in0.0 mm 0.04 in1.0 mm
09:48 AM 35.6°F2.0°C 32.4°F0.2°C 88% 14.0 mph N22.5 kmh N 22.0 mph35.4 kmh 30.25 in1024.4 mb 0.00 in0.0 mm 0.00 in0.0 mm 0.04 in1.0 mm
09:51 AM 35.8°F2.1°C 32.5°F0.3°C 88% 13.0 mph N20.9 kmh N 21.0 mph33.8 kmh 30.25 in1024.4 mb 0.00 in0.0 mm 0.00 in0.0 mm 0.04 in1.0 mm
09:54 AM 35.8°F2.1°C 32.5°F0.3°C 88% 12.0 mph N19.3 kmh N 21.0 mph33.8 kmh 30.25 in1024.4 mb 0.00 in0.0 mm 0.00 in0.0 mm 0.04 in1.0 mm
09:57 AM 36.0°F2.2°C 32.4°F0.2°C 87% 12.0 mph NNW19.3 kmh NNW 21.0 mph33.8 kmh 30.25 in1024.4 mb 0.00 in0.0 mm 0.00 in0.0 mm 0.04 in1.0 mm
10:00 AM 36.0°F2.2°C 32.4°F0.2°C 87% 11.0 mph N17.7 kmh N 19.0 mph30.6 kmh 30.25 in1024.4 mb 0.00 in0.0 mm 0.00 in0.0 mm 0.04 in1.0 mm
10:03 AM 36.0°F2.2°C 32.5°F0.3°C 87% 11.0 mph N17.7 kmh N 21.0 mph33.8 kmh 30.25 in1024.4 mb 0.00 in0.0 mm 0.00 in0.0 mm 0.04 in1.0 mm
10:06 AM 36.0°F2.2°C 32.5°F0.3°C 87% 12.0 mph N19.3 kmh N 23.0 mph37.0 kmh 30.25 in1024.4 mb 0.00 in0.0 mm 0.00 in0.0 mm 0.04 in1.0 mm
10:09 AM 36.1°F2.3°C 32.5°F0.3°C 87% 13.0 mph N20.9 kmh N 23.0 mph37.0 kmh 30.25 in1024.4 mb 0.00 in0.0 mm 0.00 in0.0 mm 0.04 in1.0 mm
10:12 AM 36.3°F2.4°C 32.5°F0.3°C 86% 15.0 mph N24.1 kmh N 26.0 mph41.8 kmh 30.25 in1024.4 mb 0.00 in0.0 mm 0.00 in0.0 mm 0.04 in1.0 mm
10:15 AM 36.3°F2.4°C 32.5°F0.3°C 86% 15.0 mph N24.1 kmh N 26.0 mph41.8 kmh 30.25 in1024.4 mb 0.00 in0.0 mm 0.00 in0.0 mm 0.04 in1.0 mm
10:18 AM 36.5°F2.5°C 32.7°F0.4°C 86% 15.0 mph N24.1 kmh N 26.0 mph41.8 kmh 30.25 in1024.4 mb 0.00 in0.0 mm 0.00 in0.0 mm 0.04 in1.0 mm
10:21 AM 36.7°F2.6°C 32.5°F0.3°C 85% 15.0 mph N24.1 kmh N 24.0 mph38.6 kmh 30.25 in1024.4 mb 0.00 in0.0 mm 0.00 in0.0 mm 0.04 in1.0 mm
10:24 AM 36.7°F2.6°C 32.5°F0.3°C 85% 14.0 mph N22.5 kmh N 24.0 mph38.6 kmh 30.25 in1024.4 mb 0.00 in0.0 mm 0.00 in0.0 mm 0.04 in1.0 mm
10:27 AM 36.9°F2.7°C 33.1°F0.6°C 86% 13.0 mph N20.9 kmh N 24.0 mph38.6 kmh 30.26 in1024.7 mb 0.00 in0.0 mm 0.00 in0.0 mm 0.04 in1.0 mm
10:30 AM 36.9°F2.7°C 32.9°F0.5°C 85% 12.0 mph N19.3 kmh N 22.0 mph35.4 kmh 30.25 in1024.4 mb 0.00 in0.0 mm 0.00 in0.0 mm 0.04 in1.0 mm
10:33 AM 37.0°F2.8°C 33.1°F0.6°C 85% 13.0 mph N20.9 kmh N 24.0 mph38.6 kmh 30.25 in1024.4 mb 0.00 in0.0 mm 0.00 in0.0 mm 0.04 in1.0 mm
10:36 AM 37.2°F2.9°C 33.1°F0.6°C 85% 14.0 mph N22.5 kmh N 24.0 mph38.6 kmh 30.25 in1024.4 mb 0.00 in0.0 mm 0.00 in0.0 mm 0.04 in1.0 mm
10:39 AM 37.2°F2.9°C 33.3°F0.7°C 85% 14.0 mph N22.5 kmh N 24.0 mph38.6 kmh 30.25 in1024.4 mb 0.00 in0.0 mm 0.00 in0.0 mm 0.04 in1.0 mm
10:42 AM 37.4°F3.0°C 33.1°F0.6°C 84% 15.0 mph N24.1 kmh N 23.0 mph37.0 kmh 30.25 in1024.4 mb 0.00 in0.0 mm 0.00 in0.0 mm 0.04 in1.0 mm
10:45 AM 37.4°F3.0°C 33.1°F0.6°C 84% 15.0 mph N24.1 kmh N 23.0 mph37.0 kmh 30.26 in1024.7 mb 0.00 in0.0 mm 0.00 in0.0 mm 0.04 in1.0 mm
10:48 AM 37.6°F3.1°C 33.1°F0.6°C 84% 15.0 mph N24.1 kmh N 23.0 mph37.0 kmh 30.26 in1024.7 mb 0.00 in0.0 mm 0.00 in0.0 mm 0.04 in1.0 mm
10:51 AM 37.6°F3.1°C 33.3°F0.7°C 84% 14.0 mph NNW22.5 kmh NNW 23.0 mph37.0 kmh 30.26 in1024.7 mb 0.00 in0.0 mm 0.00 in0.0 mm 0.04 in1.0 mm
10:54 AM 37.8°F3.2°C 33.3°F0.7°C 84% 14.0 mph NNW22.5 kmh NNW 22.0 mph35.4 kmh 30.26 in1024.7 mb 0.00 in0.0 mm 0.00 in0.0 mm 0.04 in1.0 mm
10:57 AM 37.8°F3.2°C 33.1°F0.6°C 83% 15.0 mph NNW24.1 kmh NNW 24.0 mph38.6 kmh 30.26 in1024.7 mb 0.00 in0.0 mm 0.00 in0.0 mm 0.04 in1.0 mm
11:00 AM 37.8°F3.2°C 32.7°F0.4°C 82% 16.0 mph N25.7 kmh N 24.0 mph38.6 kmh 30.26 in1024.7 mb 0.00 in0.0 mm 0.00 in0.0 mm 0.04 in1.0 mm
11:03 AM 37.8°F3.2°C 32.7°F0.4°C 82% 17.0 mph N27.4 kmh N 24.0 mph38.6 kmh 30.26 in1024.7 mb 0.00 in0.0 mm 0.00 in0.0 mm 0.04 in1.0 mm
11:06 AM 37.8°F3.2°C 32.7°F0.4°C 82% 16.0 mph N25.7 kmh N 24.0 mph38.6 kmh 30.26 in1024.7 mb 0.00 in0.0 mm 0.00 in0.0 mm 0.04 in1.0 mm
11:09 AM 37.9°F3.3°C 33.1°F0.6°C 82% 16.0 mph N25.7 kmh N 24.0 mph38.6 kmh 30.26 in1024.7 mb 0.00 in0.0 mm 0.00 in0.0 mm 0.04 in1.0 mm
11:12 AM 37.9°F3.3°C 32.7°F0.4°C 81% 16.0 mph N25.7 kmh N 24.0 mph38.6 kmh 30.26 in1024.7 mb 0.00 in0.0 mm 0.00 in0.0 mm 0.04 in1.0 mm
11:15 AM 37.9°F3.3°C 32.4°F0.2°C 80% 17.0 mph N27.4 kmh N 26.0 mph41.8 kmh 30.26 in1024.7 mb 0.00 in0.0 mm 0.00 in0.0 mm 0.04 in1.0 mm
11:18 AM 38.1°F3.4°C 32.7°F0.4°C 81% 16.0 mph N25.7 kmh N 26.0 mph41.8 kmh 30.26 in1024.7 mb 0.00 in0.0 mm 0.00 in0.0 mm 0.04 in1.0 mm
11:21 AM 38.3°F3.5°C 32.9°F0.5°C 81% 15.0 mph N24.1 kmh N 26.0 mph41.8 kmh 30.26 in1024.7 mb 0.00 in0.0 mm 0.00 in0.0 mm 0.04 in1.0 mm
11:24 AM 38.5°F3.6°C 33.1°F0.6°C 81% 14.0 mph N22.5 kmh N 22.0 mph35.4 kmh 30.27 in1025.1 mb 0.00 in0.0 mm 0.00 in0.0 mm 0.04 in1.0 mm
11:27 AM 38.5°F3.6°C 32.9°F0.5°C 80% 14.0 mph N22.5 kmh N 24.0 mph38.6 kmh 30.26 in1024.7 mb 0.00 in0.0 mm 0.00 in0.0 mm 0.04 in1.0 mm
11:30 AM 38.5°F3.6°C 32.5°F0.3°C 79% 14.0 mph N22.5 kmh N 24.0 mph38.6 kmh 30.26 in1024.7 mb 0.00 in0.0 mm 0.00 in0.0 mm 0.04 in1.0 mm
11:33 AM 38.7°F3.7°C 32.9°F0.5°C 80% 15.0 mph N24.1 kmh N 24.0 mph38.6 kmh 30.27 in1025.1 mb 0.00 in0.0 mm 0.00 in0.0 mm 0.04 in1.0 mm
11:36 AM 38.7°F3.7°C 32.7°F0.4°C 79% 15.0 mph N24.1 kmh N 24.0 mph38.6 kmh 30.26 in1024.7 mb 0.00 in0.0 mm 0.00 in0.0 mm 0.04 in1.0 mm
11:39 AM 38.7°F3.7°C 32.7°F0.4°C 79% 15.0 mph NNW24.1 kmh NNW 23.0 mph37.0 kmh 30.26 in1024.7 mb 0.00 in0.0 mm 0.00 in0.0 mm 0.04 in1.0 mm
11:42 AM 38.8°F3.8°C 32.9°F0.5°C 79% 16.0 mph NNW25.7 kmh NNW 23.0 mph37.0 kmh 30.26 in1024.7 mb 0.00 in0.0 mm 0.00 in0.0 mm 0.04 in1.0 mm
11:45 AM 38.8°F3.8°C 32.9°F0.5°C 79% 17.0 mph N27.4 kmh N 29.0 mph46.7 kmh 30.26 in1024.7 mb 0.00 in0.0 mm 0.00 in0.0 mm 0.04 in1.0 mm
11:48 AM 38.8°F3.8°C 32.9°F0.5°C 79% 17.0 mph N27.4 kmh N 29.0 mph46.7 kmh 30.26 in1024.7 mb 0.00 in0.0 mm 0.00 in0.0 mm 0.04 in1.0 mm
11:51 AM 39.0°F3.9°C 32.7°F0.4°C 78% 18.0 mph N29.0 kmh N 29.0 mph46.7 kmh 30.27 in1025.1 mb 0.00 in0.0 mm 0.00 in0.0 mm 0.04 in1.0 mm
11:54 AM 39.0°F3.9°C 33.1°F0.6°C 79% 17.0 mph N27.4 kmh N 28.0 mph45.1 kmh 30.26 in1024.7 mb 0.00 in0.0 mm 0.00 in0.0 mm 0.04 in1.0 mm
11:57 AM 39.0°F3.9°C 32.9°F0.5°C 78% 17.0 mph N27.4 kmh N 28.0 mph45.1 kmh 30.26 in1024.7 mb 0.00 in0.0 mm 0.00 in0.0 mm 0.04 in1.0 mm
12:00 PM 39.0°F3.9°C 32.9°F0.5°C 78% 16.0 mph N25.7 kmh N 27.0 mph43.5 kmh 30.27 in1025.1 mb 0.00 in0.0 mm 0.00 in0.0 mm 0.04 in1.0 mm
12:03 PM 39.4°F4.1°C 33.1°F0.6°C 78% 15.0 mph N24.1 kmh N 26.0 mph41.8 kmh 30.27 in1025.1 mb 0.00 in0.0 mm 0.00 in0.0 mm 0.04 in1.0 mm
12:06 PM 39.4°F4.1°C 32.7°F0.4°C 77% 15.0 mph N24.1 kmh N 25.0 mph40.2 kmh 30.27 in1025.1 mb 0.00 in0.0 mm 0.00 in0.0 mm 0.04 in1.0 mm
12:09 PM 39.4°F4.1°C 32.7°F0.4°C 77% 17.0 mph N27.4 kmh N 28.0 mph45.1 kmh 30.27 in1025.1 mb 0.00 in0.0 mm 0.00 in0.0 mm 0.04 in1.0 mm
12:12 PM 39.4°F4.1°C 32.4°F0.2°C 76% 18.0 mph N29.0 kmh N 28.0 mph45.1 kmh 30.27 in1025.1 mb 0.00 in0.0 mm 0.00 in0.0 mm 0.04 in1.0 mm
12:15 PM 39.4°F4.1°C 32.4°F0.2°C 76% 18.0 mph N29.0 kmh N 28.0 mph45.1 kmh 30.27 in1025.1 mb 0.00 in0.0 mm 0.00 in0.0 mm 0.04 in1.0 mm
12:18 PM 39.4°F4.1°C 32.5°F0.3°C 76% 18.0 mph N29.0 kmh N 28.0 mph45.1 kmh 30.27 in1025.1 mb 0.00 in0.0 mm 0.00 in0.0 mm 0.04 in1.0 mm
12:21 PM 39.4°F4.1°C 32.5°F0.3°C 76% 16.0 mph N25.7 kmh N 25.0 mph40.2 kmh 30.27 in1025.1 mb 0.00 in0.0 mm 0.00 in0.0 mm 0.04 in1.0 mm
12:24 PM 39.6°F4.2°C 32.9°F0.5°C 77% 15.0 mph N24.1 kmh N 25.0 mph40.2 kmh 30.26 in1024.7 mb 0.00 in0.0 mm 0.00 in0.0 mm 0.04 in1.0 mm
12:27 PM 39.4°F4.1°C 32.0°F0.0°C 75% 16.0 mph N25.7 kmh N 29.0 mph46.7 kmh 30.26 in1024.7 mb 0.00 in0.0 mm 0.00 in0.0 mm 0.04 in1.0 mm
12:30 PM 39.4°F4.1°C 32.0°F0.0°C 75% 16.0 mph N25.7 kmh N 29.0 mph46.7 kmh 30.26 in1024.7 mb 0.00 in0.0 mm 0.00 in0.0 mm 0.04 in1.0 mm
12:33 PM 39.4°F4.1°C 32.5°F0.3°C 76% 17.0 mph N27.4 kmh N 29.0 mph46.7 kmh 30.26 in1024.7 mb 0.00 in0.0 mm 0.00 in0.0 mm 0.04 in1.0 mm
12:36 PM 39.4°F4.1°C 32.5°F0.3°C 76% 18.0 mph N29.0 kmh N 29.0 mph46.7 kmh 30.26 in1024.7 mb 0.00 in0.0 mm 0.00 in0.0 mm 0.04 in1.0 mm
12:39 PM 39.6°F4.2°C 32.2°F0.1°C 75% 19.0 mph N30.6 kmh N 34.0 mph54.7 kmh 30.26 in1024.7 mb 0.00 in0.0 mm 0.00 in0.0 mm 0.04 in1.0 mm
12:42 PM 39.6°F4.2°C 31.8°F-0.1°C 74% 20.0 mph N32.2 kmh N 34.0 mph54.7 kmh 30.26 in1024.7 mb 0.00 in0.0 mm 0.00 in0.0 mm 0.04 in1.0 mm
12:45 PM 39.6°F4.2°C 32.0°F0.0°C 74% 21.0 mph N33.8 kmh N 34.0 mph54.7 kmh 30.26 in1024.7 mb 0.00 in0.0 mm 0.00 in0.0 mm 0.04 in1.0 mm
12:48 PM 39.7°F4.3°C 32.0°F0.0°C 74% 20.0 mph N32.2 kmh N 32.0 mph51.5 kmh 30.26 in1024.7 mb 0.00 in0.0 mm 0.00 in0.0 mm 0.04 in1.0 mm
12:51 PM 39.6°F4.2°C 32.4°F0.2°C 75% 18.0 mph N29.0 kmh N 32.0 mph51.5 kmh 30.27 in1025.1 mb 0.00 in0.0 mm 0.00 in0.0 mm 0.04 in1.0 mm
12:54 PM 39.7°F4.3°C 32.0°F0.0°C 74% 18.0 mph N29.0 kmh N 30.0 mph48.3 kmh 30.26 in1024.7 mb 0.00 in0.0 mm 0.00 in0.0 mm 0.04 in1.0 mm
12:57 PM 39.6°F4.2°C 31.6°F-0.2°C 73% 18.0 mph N29.0 kmh N 30.0 mph48.3 kmh 30.26 in1024.7 mb 0.00 in0.0 mm 0.00 in0.0 mm 0.04 in1.0 mm
01:00 PM 39.6°F4.2°C 32.4°F0.2°C 75% 18.0 mph N29.0 kmh N 30.0 mph48.3 kmh 30.26 in1024.7 mb 0.00 in0.0 mm 0.00 in0.0 mm 0.04 in1.0 mm
01:03 PM 39.7°F4.3°C 32.0°F0.0°C 74% 18.0 mph N29.0 kmh N 29.0 mph46.7 kmh 30.26 in1024.7 mb 0.00 in0.0 mm 0.00 in0.0 mm 0.04 in1.0 mm
01:06 PM 39.7°F4.3°C 31.8°F-0.1°C 73% 18.0 mph N29.0 kmh N 30.0 mph48.3 kmh 30.26 in1024.7 mb 0.00 in0.0 mm 0.00 in0.0 mm 0.04 in1.0 mm
01:09 PM 39.7°F4.3°C 31.8°F-0.1°C 73% 19.0 mph N30.6 kmh N 30.0 mph48.3 kmh 30.26 in1024.7 mb 0.00 in0.0 mm 0.00 in0.0 mm 0.04 in1.0 mm
01:12 PM 39.7°F4.3°C 31.8°F-0.1°C 73% 19.0 mph N30.6 kmh N 30.0 mph48.3 kmh 30.26 in1024.7 mb 0.00 in0.0 mm 0.00 in0.0 mm 0.04 in1.0 mm
01:15 PM 39.6°F4.2°C 31.6°F-0.2°C 73% 18.0 mph N29.0 kmh N 29.0 mph46.7 kmh 30.26 in1024.7 mb 0.00 in0.0 mm 0.00 in0.0 mm 0.04 in1.0 mm
01:18 PM 39.6°F4.2°C 32.0°F0.0°C 74% 17.0 mph N27.4 kmh N 29.0 mph46.7 kmh 30.26 in1024.7 mb 0.00 in0.0 mm 0.00 in0.0 mm 0.04 in1.0 mm
01:21 PM 39.7°F4.3°C 32.5°F0.3°C 75% 16.0 mph N25.7 kmh N 29.0 mph46.7 kmh 30.26 in1024.7 mb 0.00 in0.0 mm 0.00 in0.0 mm 0.04 in1.0 mm
01:24 PM 39.9°F4.4°C 32.4°F0.2°C 74% 16.0 mph N25.7 kmh N 25.0 mph40.2 kmh 30.26 in1024.7 mb 0.00 in0.0 mm 0.00 in0.0 mm 0.04 in1.0 mm
01:27 PM 40.1°F4.5°C 32.9°F0.5°C 75% 15.0 mph N24.1 kmh N 25.0 mph40.2 kmh 30.26 in1024.7 mb 0.00 in0.0 mm 0.00 in0.0 mm 0.04 in1.0 mm
01:30 PM 40.5°F4.7°C 33.3°F0.7°C 75% 15.0 mph N24.1 kmh N 25.0 mph40.2 kmh 30.26 in1024.7 mb 0.00 in0.0 mm 0.00 in0.0 mm 0.04 in1.0 mm
01:33 PM 40.5°F4.7°C 32.2°F0.1°C 72% 16.0 mph N25.7 kmh N 33.0 mph53.1 kmh 30.25 in1024.4 mb 0.00 in0.0 mm 0.00 in0.0 mm 0.04 in1.0 mm
01:36 PM 40.5°F4.7°C 32.5°F0.3°C 73% 17.0 mph N27.4 kmh N 33.0 mph53.1 kmh 30.25 in1024.4 mb 0.00 in0.0 mm 0.00 in0.0 mm 0.04 in1.0 mm
01:39 PM 40.5°F4.7°C 32.5°F0.3°C 73% 19.0 mph N30.6 kmh N 33.0 mph53.1 kmh 30.25 in1024.4 mb 0.00 in0.0 mm 0.00 in0.0 mm 0.04 in1.0 mm
01:42 PM 40.5°F4.7°C 32.2°F0.1°C 72% 18.0 mph N29.0 kmh N 30.0 mph48.3 kmh 30.25 in1024.4 mb 0.00 in0.0 mm 0.00 in0.0 mm 0.04 in1.0 mm
01:45 PM 40.5°F4.7°C 32.5°F0.3°C 73% 17.0 mph N27.4 kmh N 30.0 mph48.3 kmh 30.26 in1024.7 mb 0.00 in0.0 mm 0.00 in0.0 mm 0.04 in1.0 mm
01:48 PM 40.6°F4.8°C 32.4°F0.2°C 72% 17.0 mph N27.4 kmh N 31.0 mph49.9 kmh 30.25 in1024.4 mb 0.00 in0.0 mm 0.00 in0.0 mm 0.04 in1.0 mm
01:51 PM 40.5°F4.7°C 31.8°F-0.1°C 71% 19.0 mph N30.6 kmh N 32.0 mph51.5 kmh 30.25 in1024.4 mb 0.00 in0.0 mm 0.00 in0.0 mm 0.04 in1.0 mm
01:54 PM 40.5°F4.7°C 31.8°F-0.1°C 71% 20.0 mph N32.2 kmh N 32.0 mph51.5 kmh 30.26 in1024.7 mb 0.00 in0.0 mm 0.00 in0.0 mm 0.04 in1.0 mm
01:57 PM 40.5°F4.7°C 31.8°F-0.1°C 71% 21.0 mph N33.8 kmh N 36.0 mph57.9 kmh 30.25 in1024.4 mb 0.00 in0.0 mm 0.00 in0.0 mm 0.04 in1.0 mm
02:00 PM 40.3°F4.6°C 31.3°F-0.4°C 70% 21.0 mph N33.8 kmh N 36.0 mph57.9 kmh 30.25 in1024.4 mb 0.00 in0.0 mm 0.00 in0.0 mm 0.04 in1.0 mm
02:03 PM 40.3°F4.6°C 31.3°F-0.4°C 70% 21.0 mph N33.8 kmh N 36.0 mph57.9 kmh 30.25 in1024.4 mb 0.00 in0.0 mm 0.00 in0.0 mm 0.04 in1.0 mm
02:06 PM 40.3°F4.6°C 31.3°F-0.4°C 70% 22.0 mph N35.4 kmh N 36.0 mph57.9 kmh 30.26 in1024.7 mb 0.00 in0.0 mm 0.00 in0.0 mm 0.04 in1.0 mm
02:09 PM 40.1°F4.5°C 31.1°F-0.5°C 70% 20.0 mph N32.2 kmh N 33.0 mph53.1 kmh 30.26 in1024.7 mb 0.00 in0.0 mm 0.00 in0.0 mm 0.04 in1.0 mm
02:12 PM 40.1°F4.5°C 31.1°F-0.5°C 70% 19.0 mph N30.6 kmh N 29.0 mph46.7 kmh 30.26 in1024.7 mb 0.00 in0.0 mm 0.00 in0.0 mm 0.04 in1.0 mm
02:15 PM 40.1°F4.5°C 31.1°F-0.5°C 70% 19.0 mph N30.6 kmh N 29.0 mph46.7 kmh 30.26 in1024.7 mb 0.00 in0.0 mm 0.00 in0.0 mm 0.04 in1.0 mm
02:18 PM 40.3°F4.6°C 31.5°F-0.3°C 71% 17.0 mph N27.4 kmh N 29.0 mph46.7 kmh 30.26 in1024.7 mb 0.00 in0.0 mm 0.00 in0.0 mm 0.04 in1.0 mm
02:21 PM 40.3°F4.6°C 31.3°F-0.4°C 70% 16.0 mph N25.7 kmh N 27.0 mph43.5 kmh 30.26 in1024.7 mb 0.00 in0.0 mm 0.00 in0.0 mm 0.04 in1.0 mm
02:24 PM 40.3°F4.6°C 30.9°F-0.6°C 69% 17.0 mph N27.4 kmh N 30.0 mph48.3 kmh 30.26 in1024.7 mb 0.00 in0.0 mm 0.00 in0.0 mm 0.04 in1.0 mm
02:27 PM 40.3°F4.6°C 30.2°F-1.0°C 67% 18.0 mph N29.0 kmh N 30.0 mph48.3 kmh 30.26 in1024.7 mb 0.00 in0.0 mm 0.00 in0.0 mm 0.04 in1.0 mm
02:30 PM 40.3°F4.6°C 29.7°F-1.3°C 66% 19.0 mph N30.6 kmh N 30.0 mph48.3 kmh 30.26 in1024.7 mb 0.00 in0.0 mm 0.00 in0.0 mm 0.04 in1.0 mm
02:33 PM 40.3°F4.6°C 29.8°F-1.2°C 66% 21.0 mph N33.8 kmh N 35.0 mph56.3 kmh 30.27 in1025.1 mb 0.00 in0.0 mm 0.00 in0.0 mm 0.04 in1.0 mm
02:36 PM 40.5°F4.7°C 30.4°F-0.9°C 67% 21.0 mph N33.8 kmh N 35.0 mph56.3 kmh 30.26 in1024.7 mb 0.00 in0.0 mm 0.00 in0.0 mm 0.04 in1.0 mm
02:39 PM 40.6°F4.8°C 30.9°F-0.6°C 68% 20.0 mph N32.2 kmh N 35.0 mph56.3 kmh 30.27 in1025.1 mb 0.00 in0.0 mm 0.00 in0.0 mm 0.04 in1.0 mm
02:42 PM 40.8°F4.9°C 31.1°F-0.5°C 68% 17.0 mph N27.4 kmh N 27.0 mph43.5 kmh 30.26 in1024.7 mb 0.00 in0.0 mm 0.00 in0.0 mm 0.04 in1.0 mm
02:45 PM 40.8°F4.9°C 31.1°F-0.5°C 68% 15.0 mph N24.1 kmh N 25.0 mph40.2 kmh 30.27 in1025.1 mb 0.00 in0.0 mm 0.00 in0.0 mm 0.04 in1.0 mm
02:48 PM 40.8°F4.9°C 30.7°F-0.7°C 67% 16.0 mph N25.7 kmh N 27.0 mph43.5 kmh 30.26 in1024.7 mb 0.00 in0.0 mm 0.00 in0.0 mm 0.04 in1.0 mm
02:51 PM 40.8°F4.9°C 30.7°F-0.7°C 67% 17.0 mph N27.4 kmh N 27.0 mph43.5 kmh 30.26 in1024.7 mb 0.00 in0.0 mm 0.00 in0.0 mm 0.04 in1.0 mm
02:54 PM 40.8°F4.9°C 30.7°F-0.7°C 67% 17.0 mph N27.4 kmh N 27.0 mph43.5 kmh 30.26 in1024.7 mb 0.00 in0.0 mm 0.00 in0.0 mm 0.04 in1.0 mm
02:57 PM 40.8°F4.9°C 30.7°F-0.7°C 67% 18.0 mph N29.0 kmh N 28.0 mph45.1 kmh 30.26 in1024.7 mb 0.00 in0.0 mm 0.00 in0.0 mm 0.04 in1.0 mm
03:00 PM 40.8°F4.9°C 30.7°F-0.7°C 67% 18.0 mph N29.0 kmh N 28.0 mph45.1 kmh 30.26 in1024.7 mb 0.00 in0.0 mm 0.00 in0.0 mm 0.04 in1.0 mm
03:03 PM 40.8°F4.9°C 30.4°F-0.9°C 66% 18.0 mph N29.0 kmh N 31.0 mph49.9 kmh 30.26 in1024.7 mb 0.00 in0.0 mm 0.00 in0.0 mm 0.04 in1.0 mm
03:06 PM 40.8°F4.9°C 30.7°F-0.7°C 67% 16.0 mph N25.7 kmh N 31.0 mph49.9 kmh 30.26 in1024.7 mb 0.00 in0.0 mm 0.00 in0.0 mm 0.04 in1.0 mm
03:09 PM 40.8°F4.9°C 30.7°F-0.7°C 67% 15.0 mph N24.1 kmh N 31.0 mph49.9 kmh 30.26 in1024.7 mb 0.00 in0.0 mm 0.00 in0.0 mm 0.04 in1.0 mm
03:12 PM 40.8°F4.9°C 30.7°F-0.7°C 67% 14.0 mph N22.5 kmh N 23.0 mph37.0 kmh 30.26 in1024.7 mb 0.00 in0.0 mm 0.00 in0.0 mm 0.04 in1.0 mm
03:15 PM 40.8°F4.9°C 30.4°F-0.9°C 66% 16.0 mph N25.7 kmh N 23.0 mph37.0 kmh 30.26 in1024.7 mb 0.00 in0.0 mm 0.00 in0.0 mm 0.04 in1.0 mm
03:18 PM 40.8°F4.9°C 30.7°F-0.7°C 67% 16.0 mph N25.7 kmh N 25.0 mph40.2 kmh 30.26 in1024.7 mb 0.00 in0.0 mm 0.00 in0.0 mm 0.04 in1.0 mm
03:21 PM 40.8°F4.9°C 30.7°F-0.7°C 67% 17.0 mph N27.4 kmh N 26.0 mph41.8 kmh 30.26 in1024.7 mb 0.00 in0.0 mm 0.00 in0.0 mm 0.04 in1.0 mm
03:24 PM 40.8°F4.9°C 30.7°F-0.7°C 67% 17.0 mph N27.4 kmh N 26.0 mph41.8 kmh 30.27 in1025.1 mb 0.00 in0.0 mm 0.00 in0.0 mm 0.04 in1.0 mm
03:27 PM 40.6°F4.8°C 30.6°F-0.8°C 67% 15.0 mph N24.1 kmh N 26.0 mph41.8 kmh 30.27 in1025.1 mb 0.00 in0.0 mm 0.00 in0.0 mm 0.04 in1.0 mm
03:30 PM 40.6°F4.8°C 30.9°F-0.6°C 68% 15.0 mph N24.1 kmh N 26.0 mph41.8 kmh 30.27 in1025.1 mb 0.00 in0.0 mm 0.00 in0.0 mm 0.04 in1.0 mm
03:33 PM 40.6°F4.8°C 30.6°F-0.8°C 67% 15.0 mph N24.1 kmh N 27.0 mph43.5 kmh 30.27 in1025.1 mb 0.00 in0.0 mm 0.00 in0.0 mm 0.04 in1.0 mm
03:36 PM 40.6°F4.8°C 30.6°F-0.8°C 67% 16.0 mph N25.7 kmh N 27.0 mph43.5 kmh 30.27 in1025.1 mb 0.00 in0.0 mm 0.00 in0.0 mm 0.04 in1.0 mm
03:39 PM 40.5°F4.7°C 30.4°F-0.9°C 67% 16.0 mph N25.7 kmh N 27.0 mph43.5 kmh 30.27 in1025.1 mb 0.00 in0.0 mm 0.00 in0.0 mm 0.04 in1.0 mm
03:42 PM 40.5°F4.7°C 30.7°F-0.7°C 68% 16.0 mph N25.7 kmh N 25.0 mph40.2 kmh 30.27 in1025.1 mb 0.00 in0.0 mm 0.00 in0.0 mm 0.04 in1.0 mm
03:45 PM 40.5°F4.7°C 30.7°F-0.7°C 68% 15.0 mph N24.1 kmh N 24.0 mph38.6 kmh 30.27 in1025.1 mb 0.00 in0.0 mm 0.00 in0.0 mm 0.04 in1.0 mm
03:48 PM 40.5°F4.7°C 30.7°F-0.7°C 68% 15.0 mph N24.1 kmh N 24.0 mph38.6 kmh 30.27 in1025.1 mb 0.00 in0.0 mm 0.00 in0.0 mm 0.04 in1.0 mm
03:51 PM 40.5°F4.7°C 31.1°F-0.5°C 69% 14.0 mph N22.5 kmh N 24.0 mph38.6 kmh 30.27 in1025.1 mb 0.00 in0.0 mm 0.00 in0.0 mm 0.04 in1.0 mm
03:54 PM 40.5°F4.7°C 31.1°F-0.5°C 69% 13.0 mph N20.9 kmh N 24.0 mph38.6 kmh 30.27 in1025.1 mb 0.00 in0.0 mm 0.00 in0.0 mm 0.04 in1.0 mm
03:57 PM 40.5°F4.7°C 31.5°F-0.3°C 70% 13.0 mph NNW20.9 kmh NNW 22.0 mph35.4 kmh 30.27 in1025.1 mb 0.00 in0.0 mm 0.00 in0.0 mm 0.04 in1.0 mm
04:00 PM 40.5°F4.7°C 31.5°F-0.3°C 70% 13.0 mph NNW20.9 kmh NNW 23.0 mph37.0 kmh 30.27 in1025.1 mb 0.00 in0.0 mm 0.00 in0.0 mm 0.04 in1.0 mm
04:03 PM 40.5°F4.7°C 31.5°F-0.3°C 70% 13.0 mph NNW20.9 kmh NNW 23.0 mph37.0 kmh 30.27 in1025.1 mb 0.00 in0.0 mm 0.00 in0.0 mm 0.04 in1.0 mm
04:06 PM 40.3°F4.6°C 31.3°F-0.4°C 70% 13.0 mph NNW20.9 kmh NNW 23.0 mph37.0 kmh 30.27 in1025.1 mb 0.00 in0.0 mm 0.00 in0.0 mm 0.04 in1.0 mm
04:09 PM 40.3°F4.6°C 31.3°F-0.4°C 70% 12.0 mph N19.3 kmh N 20.0 mph32.2 kmh 30.27 in1025.1 mb 0.00 in0.0 mm 0.00 in0.0 mm 0.04 in1.0 mm
04:12 PM 40.1°F4.5°C 31.1°F-0.5°C 70% 13.0 mph NNW20.9 kmh NNW 19.0 mph30.6 kmh 30.27 in1025.1 mb 0.00 in0.0 mm 0.00 in0.0 mm 0.04 in1.0 mm
04:15 PM 39.9°F4.4°C 30.9°F-0.6°C 70% 13.0 mph NNW20.9 kmh NNW 19.0 mph30.6 kmh 30.28 in1025.4 mb 0.00 in0.0 mm 0.00 in0.0 mm 0.04 in1.0 mm
04:18 PM 39.9°F4.4°C 31.3°F-0.4°C 71% 12.0 mph NNW19.3 kmh NNW 19.0 mph30.6 kmh 30.28 in1025.4 mb 0.00 in0.0 mm 0.00 in0.0 mm 0.04 in1.0 mm
04:21 PM 39.9°F4.4°C 31.3°F-0.4°C 71% 11.0 mph NNW17.7 kmh NNW 19.0 mph30.6 kmh 30.28 in1025.4 mb 0.00 in0.0 mm 0.00 in0.0 mm 0.04 in1.0 mm
04:24 PM 39.9°F4.4°C 31.3°F-0.4°C 71% 10.0 mph NNW16.1 kmh NNW 18.0 mph29.0 kmh 30.28 in1025.4 mb 0.00 in0.0 mm 0.00 in0.0 mm 0.04 in1.0 mm
04:27 PM 39.9°F4.4°C 31.3°F-0.4°C 71% 12.0 mph N19.3 kmh N 22.0 mph35.4 kmh 30.28 in1025.4 mb 0.00 in0.0 mm 0.00 in0.0 mm 0.04 in1.0 mm
04:30 PM 39.9°F4.4°C 31.3°F-0.4°C 71% 13.0 mph N20.9 kmh N 22.0 mph35.4 kmh 30.28 in1025.4 mb 0.00 in0.0 mm 0.00 in0.0 mm 0.04 in1.0 mm
04:33 PM 39.7°F4.3°C 31.1°F-0.5°C 71% 14.0 mph N22.5 kmh N 22.0 mph35.4 kmh 30.28 in1025.4 mb 0.00 in0.0 mm 0.00 in0.0 mm 0.04 in1.0 mm
04:36 PM 39.7°F4.3°C 31.5°F-0.3°C 72% 12.0 mph N19.3 kmh N 22.0 mph35.4 kmh 30.28 in1025.4 mb 0.00 in0.0 mm 0.00 in0.0 mm 0.04 in1.0 mm
04:39 PM 39.7°F4.3°C 31.5°F-0.3°C 72% 13.0 mph NNW20.9 kmh NNW 23.0 mph37.0 kmh 30.28 in1025.4 mb 0.00 in0.0 mm 0.00 in0.0 mm 0.04 in1.0 mm
04:42 PM 39.6°F4.2°C 31.3°F-0.4°C 72% 13.0 mph NNW20.9 kmh NNW 23.0 mph37.0 kmh 30.28 in1025.4 mb 0.00 in0.0 mm 0.00 in0.0 mm 0.04 in1.0 mm
04:45 PM 39.4°F4.1°C 31.1°F-0.5°C 72% 12.0 mph NNW19.3 kmh NNW 23.0 mph37.0 kmh 30.28 in1025.4 mb 0.00 in0.0 mm 0.00 in0.0 mm 0.04 in1.0 mm
04:48 PM 39.2°F4.0°C 30.9°F-0.6°C 72% 13.0 mph NNW20.9 kmh NNW 23.0 mph37.0 kmh 30.28 in1025.4 mb 0.00 in0.0 mm 0.00 in0.0 mm 0.04 in1.0 mm
04:51 PM 38.8°F3.8°C 30.6°F-0.8°C 72% 12.0 mph NNW19.3 kmh NNW 24.0 mph38.6 kmh 30.28 in1025.4 mb 0.00 in0.0 mm 0.00 in0.0 mm 0.04 in1.0 mm
04:54 PM 38.7°F3.7°C 30.7°F-0.7°C 73% 12.0 mph NNW19.3 kmh NNW 24.0 mph38.6 kmh 30.28 in1025.4 mb 0.00 in0.0 mm 0.00 in0.0 mm 0.04 in1.0 mm
04:57 PM 38.5°F3.6°C 30.9°F-0.6°C 74% 12.0 mph NNW19.3 kmh NNW 24.0 mph38.6 kmh 30.28 in1025.4 mb 0.00 in0.0 mm 0.00 in0.0 mm 0.04 in1.0 mm
05:00 PM 38.3°F3.5°C 30.7°F-0.7°C 74% 12.0 mph NNW19.3 kmh NNW 22.0 mph35.4 kmh 30.28 in1025.4 mb 0.00 in0.0 mm 0.00 in0.0 mm 0.04 in1.0 mm
05:03 PM 38.1°F3.4°C 30.9°F-0.6°C 75% 13.0 mph NNW20.9 kmh NNW 22.0 mph35.4 kmh 30.28 in1025.4 mb 0.00 in0.0 mm 0.00 in0.0 mm 0.04 in1.0 mm
05:06 PM 38.1°F3.4°C 30.9°F-0.6°C 75% 13.0 mph NNW20.9 kmh NNW 21.0 mph33.8 kmh 30.28 in1025.4 mb 0.00 in0.0 mm 0.00 in0.0 mm 0.04 in1.0 mm
05:09 PM 37.9°F3.3°C 30.7°F-0.7°C 75% 13.0 mph NNW20.9 kmh NNW 21.0 mph33.8 kmh 30.28 in1025.4 mb 0.00 in0.0 mm 0.00 in0.0 mm 0.04 in1.0 mm
05:12 PM 37.8°F3.2°C 30.9°F-0.6°C 76% 13.0 mph NNW20.9 kmh NNW 21.0 mph33.8 kmh 30.28 in1025.4 mb 0.00 in0.0 mm 0.00 in0.0 mm 0.04 in1.0 mm
05:15 PM 37.6°F3.1°C 30.7°F-0.7°C 76% 13.0 mph NNW20.9 kmh NNW 21.0 mph33.8 kmh 30.28 in1025.4 mb 0.00 in0.0 mm 0.00 in0.0 mm 0.04 in1.0 mm
05:18 PM 37.6°F3.1°C 30.6°F-0.8°C 76% 14.0 mph NNW22.5 kmh NNW 21.0 mph33.8 kmh 30.28 in1025.4 mb 0.00 in0.0 mm 0.00 in0.0 mm 0.04 in1.0 mm
05:21 PM 37.2°F2.9°C 30.4°F-0.9°C 76% 13.0 mph NNW20.9 kmh NNW 21.0 mph33.8 kmh 30.28 in1025.4 mb 0.00 in0.0 mm 0.00 in0.0 mm 0.04 in1.0 mm
05:24 PM 37.0°F2.8°C 30.2°F-1.0°C 76% 13.0 mph NNW20.9 kmh NNW 20.0 mph32.2 kmh 30.29 in1025.7 mb 0.00 in0.0 mm 0.00 in0.0 mm 0.04 in1.0 mm
05:27 PM 36.9°F2.7°C 30.4°F-0.9°C 77% 12.0 mph NNW19.3 kmh NNW 20.0 mph32.2 kmh 30.29 in1025.7 mb 0.00 in0.0 mm 0.00 in0.0 mm 0.04 in1.0 mm
05:30 PM 36.9°F2.7°C 30.4°F-0.9°C 77% 12.0 mph NNW19.3 kmh NNW 20.0 mph32.2 kmh 30.29 in1025.7 mb 0.00 in0.0 mm 0.00 in0.0 mm 0.04 in1.0 mm
05:33 PM 36.9°F2.7°C 30.2°F-1.0°C 77% 12.0 mph NNW19.3 kmh NNW 19.0 mph30.6 kmh 30.29 in1025.7 mb 0.00 in0.0 mm 0.00 in0.0 mm 0.04 in1.0 mm
05:36 PM 36.7°F2.6°C 30.4°F-0.9°C 78% 11.0 mph NNW17.7 kmh NNW 19.0 mph30.6 kmh 30.29 in1025.7 mb 0.00 in0.0 mm 0.00 in0.0 mm 0.04 in1.0 mm
05:39 PM 36.5°F2.5°C 30.4°F-0.9°C 78% 11.0 mph NNW17.7 kmh NNW 19.0 mph30.6 kmh 30.29 in1025.7 mb 0.00 in0.0 mm 0.00 in0.0 mm 0.04 in1.0 mm
05:42 PM 36.3°F2.4°C 30.2°F-1.0°C 78% 11.0 mph NNW17.7 kmh NNW 17.0 mph27.4 kmh 30.29 in1025.7 mb 0.00 in0.0 mm 0.00 in0.0 mm 0.04 in1.0 mm
05:45 PM 36.3°F2.4°C 30.0°F-1.1°C 78% 11.0 mph NNW17.7 kmh NNW 17.0 mph27.4 kmh 30.29 in1025.7 mb 0.00 in0.0 mm 0.00 in0.0 mm 0.04 in1.0 mm
05:48 PM 36.1°F2.3°C 29.8°F-1.2°C 78% 11.0 mph NNW17.7 kmh NNW 17.0 mph27.4 kmh 30.29 in1025.7 mb 0.00 in0.0 mm 0.00 in0.0 mm 0.04 in1.0 mm
05:51 PM 36.1°F2.3°C 29.8°F-1.2°C 78% 11.0 mph NNW17.7 kmh NNW 17.0 mph27.4 kmh 30.29 in1025.7 mb 0.00 in0.0 mm 0.00 in0.0 mm 0.04 in1.0 mm
05:54 PM 36.0°F2.2°C 29.7°F-1.3°C 78% 11.0 mph NNW17.7 kmh NNW 17.0 mph27.4 kmh 30.29 in1025.7 mb 0.00 in0.0 mm 0.00 in0.0 mm 0.04 in1.0 mm
05:57 PM 35.8°F2.1°C 29.8°F-1.2°C 79% 11.0 mph NNW17.7 kmh NNW 16.0 mph25.7 kmh 30.29 in1025.7 mb 0.00 in0.0 mm 0.00 in0.0 mm 0.04 in1.0 mm
06:00 PM 35.8°F2.1°C 29.8°F-1.2°C 79% 10.0 mph NNW16.1 kmh NNW 16.0 mph25.7 kmh 30.30 in1026.1 mb 0.00 in0.0 mm 0.00 in0.0 mm 0.04 in1.0 mm
06:03 PM 35.8°F2.1°C 29.8°F-1.2°C 79% 10.0 mph NNW16.1 kmh NNW 16.0 mph25.7 kmh 30.30 in1026.1 mb 0.00 in0.0 mm 0.00 in0.0 mm 0.04 in1.0 mm
06:06 PM 35.6°F2.0°C 29.7°F-1.3°C 79% 10.0 mph NNW16.1 kmh NNW 15.0 mph24.1 kmh 30.30 in1026.1 mb 0.00 in0.0 mm 0.00 in0.0 mm 0.04 in1.0 mm
06:09 PM 35.4°F1.9°C 29.7°F-1.3°C 79% 10.0 mph NNW16.1 kmh NNW 15.0 mph24.1 kmh 30.30 in1026.1 mb 0.00 in0.0 mm 0.00 in0.0 mm 0.04 in1.0 mm
06:12 PM 35.4°F1.9°C 29.5°F-1.4°C 79% 9.0 mph NNW14.5 kmh NNW 14.0 mph22.5 kmh 30.30 in1026.1 mb 0.00 in0.0 mm 0.00 in0.0 mm 0.04 in1.0 mm
06:15 PM 35.2°F1.8°C 29.5°F-1.4°C 79% 9.0 mph NNW14.5 kmh NNW 14.0 mph22.5 kmh 30.30 in1026.1 mb 0.00 in0.0 mm 0.00 in0.0 mm 0.04 in1.0 mm
06:18 PM 35.1°F1.7°C 29.3°F-1.5°C 79% 9.0 mph NNW14.5 kmh NNW 15.0 mph24.1 kmh 30.30 in1026.1 mb 0.00 in0.0 mm 0.00 in0.0 mm 0.04 in1.0 mm
06:21 PM 35.1°F1.7°C 29.1°F-1.6°C 79% 9.0 mph NNW14.5 kmh NNW 15.0 mph24.1 kmh 30.30 in1026.1 mb 0.00 in0.0 mm 0.00 in0.0 mm 0.04 in1.0 mm
06:24 PM 35.1°F1.7°C 29.1°F-1.6°C 79% 8.0 mph NNW12.9 kmh NNW 15.0 mph24.1 kmh 30.30 in1026.1 mb 0.00 in0.0 mm 0.00 in0.0 mm 0.04 in1.0 mm
06:27 PM 35.1°F1.7°C 29.5°F-1.4°C 80% 9.0 mph NNW14.5 kmh NNW 16.0 mph25.7 kmh 30.30 in1026.1 mb 0.00 in0.0 mm 0.00 in0.0 mm 0.04 in1.0 mm
06:30 PM 35.1°F1.7°C 29.5°F-1.4°C 80% 8.0 mph NNW12.9 kmh NNW 16.0 mph25.7 kmh 30.31 in1026.4 mb 0.00 in0.0 mm 0.00 in0.0 mm 0.04 in1.0 mm
06:33 PM 35.1°F1.7°C 29.3°F-1.5°C 79% 8.0 mph NNW12.9 kmh NNW 16.0 mph25.7 kmh 30.31 in1026.4 mb 0.00 in0.0 mm 0.00 in0.0 mm 0.04 in1.0 mm
06:36 PM 35.1°F1.7°C 29.3°F-1.5°C 79% 7.0 mph NNW11.3 kmh NNW 14.0 mph22.5 kmh 30.30 in1026.1 mb 0.00 in0.0 mm 0.00 in0.0 mm 0.04 in1.0 mm
06:39 PM 34.9°F1.6°C 29.1°F-1.6°C 79% 7.0 mph NNW11.3 kmh NNW 15.0 mph24.1 kmh 30.31 in1026.4 mb 0.00 in0.0 mm 0.00 in0.0 mm 0.04 in1.0 mm
06:42 PM 34.9°F1.6°C 28.9°F-1.7°C 79% 7.0 mph NNW11.3 kmh NNW 18.0 mph29.0 kmh 30.31 in1026.4 mb 0.00 in0.0 mm 0.00 in0.0 mm 0.04 in1.0 mm
06:45 PM 34.9°F1.6°C 28.9°F-1.7°C 79% 8.0 mph NNW12.9 kmh NNW 18.0 mph29.0 kmh 30.31 in1026.4 mb 0.00 in0.0 mm 0.00 in0.0 mm 0.04 in1.0 mm
06:48 PM 34.9°F1.6°C 28.9°F-1.7°C 79% 9.0 mph NNW14.5 kmh NNW 18.0 mph29.0 kmh 30.31 in1026.4 mb 0.00 in0.0 mm 0.00 in0.0 mm 0.04 in1.0 mm
06:51 PM 34.9°F1.6°C 28.9°F-1.7°C 79% 9.0 mph NNW14.5 kmh NNW 16.0 mph25.7 kmh 30.31 in1026.4 mb 0.00 in0.0 mm 0.00 in0.0 mm 0.04 in1.0 mm
06:54 PM 34.7°F1.5°C 28.9°F-1.7°C 79% 9.0 mph NNW14.5 kmh NNW 16.0 mph25.7 kmh 30.31 in1026.4 mb 0.00 in0.0 mm 0.00 in0.0 mm 0.04 in1.0 mm
06:57 PM 34.7°F1.5°C 29.1°F-1.6°C 80% 9.0 mph NNW14.5 kmh NNW 16.0 mph25.7 kmh 30.31 in1026.4 mb 0.00 in0.0 mm 0.00 in0.0 mm 0.04 in1.0 mm
07:00 PM 34.7°F1.5°C 28.9°F-1.7°C 79% 8.0 mph NNW12.9 kmh NNW 15.0 mph24.1 kmh 30.31 in1026.4 mb 0.00 in0.0 mm 0.00 in0.0 mm 0.04 in1.0 mm
07:03 PM 34.5°F1.4°C 29.1°F-1.6°C 80% 8.0 mph NNW12.9 kmh NNW 15.0 mph24.1 kmh 30.31 in1026.4 mb 0.00 in0.0 mm 0.00 in0.0 mm 0.04 in1.0 mm
07:06 PM 34.5°F1.4°C 28.8°F-1.8°C 79% 7.0 mph NNW11.3 kmh NNW 15.0 mph24.1 kmh 30.31 in1026.4 mb 0.00 in0.0 mm 0.00 in0.0 mm 0.04 in1.0 mm
07:09 PM 34.5°F1.4°C 28.8°F-1.8°C 79% 6.0 mph NNW9.7 kmh NNW 13.0 mph20.9 kmh 30.31 in1026.4 mb 0.00 in0.0 mm 0.00 in0.0 mm 0.04 in1.0 mm
07:12 PM 34.3°F1.3°C 28.6°F-1.9°C 79% 6.0 mph NNW9.7 kmh NNW 13.0 mph20.9 kmh 30.31 in1026.4 mb 0.00 in0.0 mm 0.00 in0.0 mm 0.04 in1.0 mm
07:15 PM 34.3°F1.3°C 28.8°F-1.8°C 80% 6.0 mph NNW9.7 kmh NNW 13.0 mph20.9 kmh 30.32 in1026.8 mb 0.00 in0.0 mm 0.00 in0.0 mm 0.04 in1.0 mm
07:18 PM 34.3°F1.3°C 28.8°F-1.8°C 80% 7.0 mph NNW11.3 kmh NNW 14.0 mph22.5 kmh 30.32 in1026.8 mb 0.00 in0.0 mm 0.00 in0.0 mm 0.04 in1.0 mm
07:21 PM 34.3°F1.3°C 28.8°F-1.8°C 80% 7.0 mph NNW11.3 kmh NNW 14.0 mph22.5 kmh 30.31 in1026.4 mb 0.00 in0.0 mm 0.00 in0.0 mm 0.04 in1.0 mm
07:24 PM 34.2°F1.2°C 28.8°F-1.8°C 80% 8.0 mph NNW12.9 kmh NNW 14.0 mph22.5 kmh 30.31 in1026.4 mb 0.00 in0.0 mm 0.00 in0.0 mm 0.04 in1.0 mm
07:27 PM 34.3°F1.3°C 28.8°F-1.8°C 80% 9.0 mph NNW14.5 kmh NNW 16.0 mph25.7 kmh 30.32 in1026.8 mb 0.00 in0.0 mm 0.00 in0.0 mm 0.04 in1.0 mm
07:30 PM 34.3°F1.3°C 28.8°F-1.8°C 80% 10.0 mph NNW16.1 kmh NNW 20.0 mph32.2 kmh 30.31 in1026.4 mb 0.00 in0.0 mm 0.00 in0.0 mm 0.04 in1.0 mm
07:33 PM 34.3°F1.3°C 28.8°F-1.8°C 80% 11.0 mph NNW17.7 kmh NNW 20.0 mph32.2 kmh 30.31 in1026.4 mb 0.00 in0.0 mm 0.00 in0.0 mm 0.04 in1.0 mm
07:36 PM 34.3°F1.3°C 28.9°F-1.7°C 80% 11.0 mph NNW17.7 kmh NNW 20.0 mph32.2 kmh 30.32 in1026.8 mb 0.00 in0.0 mm 0.00 in0.0 mm 0.04 in1.0 mm
07:39 PM 34.3°F1.3°C 28.9°F-1.7°C 80% 11.0 mph NNW17.7 kmh NNW 20.0 mph32.2 kmh 30.32 in1026.8 mb 0.00 in0.0 mm 0.00 in0.0 mm 0.04 in1.0 mm
07:42 PM 34.3°F1.3°C 28.9°F-1.7°C 80% 11.0 mph NNW17.7 kmh NNW 18.0 mph29.0 kmh 30.32 in1026.8 mb 0.00 in0.0 mm 0.00 in0.0 mm 0.04 in1.0 mm
07:45 PM 34.3°F1.3°C 28.9°F-1.7°C 80% 10.0 mph NNW16.1 kmh NNW 18.0 mph29.0 kmh 30.32 in1026.8 mb 0.00 in0.0 mm 0.00 in0.0 mm 0.04 in1.0 mm
07:48 PM 34.3°F1.3°C 29.1°F-1.6°C 81% 10.0 mph NNW16.1 kmh NNW 16.0 mph25.7 kmh 30.32 in1026.8 mb 0.00 in0.0 mm 0.00 in0.0 mm 0.04 in1.0 mm
07:51 PM 34.3°F1.3°C 28.8°F-1.8°C 80% 10.0 mph NNW16.1 kmh NNW 16.0 mph25.7 kmh 30.32 in1026.8 mb 0.00 in0.0 mm 0.00 in0.0 mm 0.04 in1.0 mm
07:54 PM 34.2°F1.2°C 28.9°F-1.7°C 81% 9.0 mph NNW14.5 kmh NNW 16.0 mph25.7 kmh 30.32 in1026.8 mb 0.00 in0.0 mm 0.00 in0.0 mm 0.04 in1.0 mm
07:57 PM 34.2°F1.2°C 28.9°F-1.7°C 81% 8.0 mph NNW12.9 kmh NNW 14.0 mph22.5 kmh 30.32 in1026.8 mb 0.00 in0.0 mm 0.00 in0.0 mm 0.04 in1.0 mm
08:00 PM 34.2°F1.2°C 28.9°F-1.7°C 81% 8.0 mph NNW12.9 kmh NNW 13.0 mph20.9 kmh 30.31 in1026.4 mb 0.00 in0.0 mm 0.00 in0.0 mm 0.04 in1.0 mm
08:03 PM 34.0°F1.1°C 28.8°F-1.8°C 81% 8.0 mph NNW12.9 kmh NNW 13.0 mph20.9 kmh 30.31 in1026.4 mb 0.00 in0.0 mm 0.00 in0.0 mm 0.04 in1.0 mm
08:06 PM 34.0°F1.1°C 28.8°F-1.8°C 81% 8.0 mph NNW12.9 kmh NNW 12.0 mph19.3 kmh 30.31 in1026.4 mb 0.00 in0.0 mm 0.00 in0.0 mm 0.04 in1.0 mm
08:09 PM 33.6°F0.9°C 28.4°F-2.0°C 81% 7.0 mph NNW11.3 kmh NNW 12.0 mph19.3 kmh 30.31 in1026.4 mb 0.00 in0.0 mm 0.00 in0.0 mm 0.04 in1.0 mm
08:12 PM 33.4°F0.8°C 28.2°F-2.1°C 81% 7.0 mph NNW11.3 kmh NNW 12.0 mph19.3 kmh 30.32 in1026.8 mb 0.00 in0.0 mm 0.00 in0.0 mm 0.04 in1.0 mm
08:15 PM 33.3°F0.7°C 28.0°F-2.2°C 81% 6.0 mph NNW9.7 kmh NNW 12.0 mph19.3 kmh 30.31 in1026.4 mb 0.00 in0.0 mm 0.00 in0.0 mm 0.04 in1.0 mm
08:18 PM 33.3°F0.7°C 28.2°F-2.1°C 82% 6.0 mph NNW9.7 kmh NNW 12.0 mph19.3 kmh 30.31 in1026.4 mb 0.00 in0.0 mm 0.00 in0.0 mm 0.04 in1.0 mm
08:21 PM 33.1°F0.6°C 28.2°F-2.1°C 82% 6.0 mph NNW9.7 kmh NNW 14.0 mph22.5 kmh 30.31 in1026.4 mb 0.00 in0.0 mm 0.00 in0.0 mm 0.04 in1.0 mm
08:24 PM 33.1°F0.6°C 28.0°F-2.2°C 82% 6.0 mph NNW9.7 kmh NNW 14.0 mph22.5 kmh 30.31 in1026.4 mb 0.00 in0.0 mm 0.00 in0.0 mm 0.04 in1.0 mm
08:27 PM 32.9°F0.5°C 28.2°F-2.1°C 83% 7.0 mph NNW11.3 kmh NNW 14.0 mph22.5 kmh 30.32 in1026.8 mb 0.00 in0.0 mm 0.00 in0.0 mm 0.04 in1.0 mm
08:30 PM 32.7°F0.4°C 28.2°F-2.1°C 83% 7.0 mph NNW11.3 kmh NNW 13.0 mph20.9 kmh 30.32 in1026.8 mb 0.00 in0.0 mm 0.00 in0.0 mm 0.04 in1.0 mm
08:33 PM 32.7°F0.4°C 28.2°F-2.1°C 83% 7.0 mph NNW11.3 kmh NNW 13.0 mph20.9 kmh 30.32 in1026.8 mb 0.00 in0.0 mm 0.00 in0.0 mm 0.04 in1.0 mm
08:36 PM 32.7°F0.4°C 28.0°F-2.2°C 83% 7.0 mph NNW11.3 kmh NNW 13.0 mph20.9 kmh 30.32 in1026.8 mb 0.00 in0.0 mm 0.00 in0.0 mm 0.04 in1.0 mm
08:39 PM 32.7°F0.4°C 28.0°F-2.2°C 83% 7.0 mph NNW11.3 kmh NNW 12.0 mph19.3 kmh 30.32 in1026.8 mb 0.00 in0.0 mm 0.00 in0.0 mm 0.04 in1.0 mm
08:42 PM 32.5°F0.3°C 28.2°F-2.1°C 84% 7.0 mph NNW11.3 kmh NNW 13.0 mph20.9 kmh 30.32 in1026.8 mb 0.00 in0.0 mm 0.00 in0.0 mm 0.04 in1.0 mm
08:45 PM 32.4°F0.2°C 28.0°F-2.2°C 84% 7.0 mph NNW11.3 kmh NNW 13.0 mph20.9 kmh 30.32 in1026.8 mb 0.00 in0.0 mm 0.00 in0.0 mm 0.04 in1.0 mm
08:48 PM 32.4°F0.2°C 28.0°F-2.2°C 84% 6.0 mph NNW9.7 kmh NNW 13.0 mph20.9 kmh 30.31 in1026.4 mb 0.00 in0.0 mm 0.00 in0.0 mm 0.04 in1.0 mm
08:51 PM 32.4°F0.2°C 28.0°F-2.2°C 84% 6.0 mph NNW9.7 kmh NNW 13.0 mph20.9 kmh 30.31 in1026.4 mb 0.00 in0.0 mm 0.00 in0.0 mm 0.04 in1.0 mm
08:54 PM 32.2°F0.1°C 27.9°F-2.3°C 84% 5.0 mph NNW8.0 kmh NNW 10.0 mph16.1 kmh 30.31 in1026.4 mb 0.00 in0.0 mm 0.00 in0.0 mm 0.04 in1.0 mm
08:57 PM 32.2°F0.1°C 27.9°F-2.3°C 84% 4.0 mph NW6.4 kmh NW 9.0 mph14.5 kmh 30.31 in1026.4 mb 0.00 in0.0 mm 0.00 in0.0 mm 0.04 in1.0 mm
09:00 PM 31.8°F-0.1°C 27.7°F-2.4°C 84% 4.0 mph NW6.4 kmh NW 9.0 mph14.5 kmh 30.31 in1026.4 mb 0.00 in0.0 mm 0.00 in0.0 mm 0.04 in1.0 mm
09:03 PM 31.6°F-0.2°C 27.5°F-2.5°C 84% 3.0 mph NW4.8 kmh NW 9.0 mph14.5 kmh 30.32 in1026.8 mb 0.00 in0.0 mm 0.00 in0.0 mm 0.04 in1.0 mm
09:06 PM 31.6°F-0.2°C 27.7°F-2.4°C 85% 3.0 mph NW4.8 kmh NW 8.0 mph12.9 kmh 30.32 in1026.8 mb 0.00 in0.0 mm 0.00 in0.0 mm 0.04 in1.0 mm
09:09 PM 31.6°F-0.2°C 27.7°F-2.4°C 85% 3.0 mph NW4.8 kmh NW 9.0 mph14.5 kmh 30.31 in1026.4 mb 0.00 in0.0 mm 0.00 in0.0 mm 0.04 in1.0 mm
09:12 PM 31.6°F-0.2°C 27.7°F-2.4°C 85% 3.0 mph NW4.8 kmh NW 9.0 mph14.5 kmh 30.31 in1026.4 mb 0.00 in0.0 mm 0.00 in0.0 mm 0.04 in1.0 mm
09:15 PM 31.6°F-0.2°C 27.9°F-2.3°C 86% 3.0 mph NW4.8 kmh NW 9.0 mph14.5 kmh 30.31 in1026.4 mb 0.00 in0.0 mm 0.00 in0.0 mm 0.04 in1.0 mm
09:18 PM 31.6°F-0.2°C 28.0°F-2.2°C 86% 2.0 mph NW3.2 kmh NW 9.0 mph14.5 kmh 30.31 in1026.4 mb 0.00 in0.0 mm 0.00 in0.0 mm 0.04 in1.0 mm
09:21 PM 31.6°F-0.2°C 28.0°F-2.2°C 86% 2.0 mph NW3.2 kmh NW 5.0 mph8.0 kmh 30.31 in1026.4 mb 0.00 in0.0 mm 0.00 in0.0 mm 0.04 in1.0 mm
09:24 PM 31.6°F-0.2°C 27.9°F-2.3°C 86% 2.0 mph NW3.2 kmh NW 5.0 mph8.0 kmh 30.31 in1026.4 mb 0.00 in0.0 mm 0.00 in0.0 mm 0.04 in1.0 mm
09:27 PM 31.6°F-0.2°C 27.9°F-2.3°C 86% 2.0 mph NW3.2 kmh NW 5.0 mph8.0 kmh 30.31 in1026.4 mb 0.00 in0.0 mm 0.00 in0.0 mm 0.04 in1.0 mm
09:30 PM 31.6°F-0.2°C 28.2°F-2.1°C 87% 2.0 mph NW3.2 kmh NW 6.0 mph9.7 kmh 30.31 in1026.4 mb 0.00 in0.0 mm 0.00 in0.0 mm 0.04 in1.0 mm
09:33 PM 31.8°F-0.1°C 28.4°F-2.0°C 87% 2.0 mph NW3.2 kmh NW 6.0 mph9.7 kmh 30.32 in1026.8 mb 0.00 in0.0 mm 0.00 in0.0 mm 0.04 in1.0 mm
09:36 PM 31.8°F-0.1°C 28.4°F-2.0°C 87% 3.0 mph NW4.8 kmh NW 6.0 mph9.7 kmh 30.31 in1026.4 mb 0.00 in0.0 mm 0.00 in0.0 mm 0.04 in1.0 mm
09:39 PM 31.8°F-0.1°C 28.4°F-2.0°C 87% 3.0 mph NW4.8 kmh NW 8.0 mph12.9 kmh 30.31 in1026.4 mb 0.00 in0.0 mm 0.00 in0.0 mm 0.04 in1.0 mm
09:42 PM 31.8°F-0.1°C 28.4°F-2.0°C 87% 3.0 mph NW4.8 kmh NW 8.0 mph12.9 kmh 30.31 in1026.4 mb 0.00 in0.0 mm 0.00 in0.0 mm 0.04 in1.0 mm
09:45 PM 31.8°F-0.1°C 28.4°F-2.0°C 87% 3.0 mph NW4.8 kmh NW 8.0 mph12.9 kmh 30.31 in1026.4 mb 0.00 in0.0 mm 0.00 in0.0 mm 0.04 in1.0 mm
09:48 PM 31.8°F-0.1°C 28.4°F-2.0°C 87% 2.0 mph NW3.2 kmh NW 8.0 mph12.9 kmh 30.31 in1026.4 mb 0.00 in0.0 mm 0.00 in0.0 mm 0.04 in1.0 mm
09:51 PM 31.6°F-0.2°C 28.2°F-2.1°C 87% 2.0 mph NW3.2 kmh NW 5.0 mph8.0 kmh 30.32 in1026.8 mb 0.00 in0.0 mm 0.00 in0.0 mm 0.04 in1.0 mm
09:54 PM 31.6°F-0.2°C 28.2°F-2.1°C 87% 3.0 mph NW4.8 kmh NW 8.0 mph12.9 kmh 30.31 in1026.4 mb 0.00 in0.0 mm 0.00 in0.0 mm 0.04 in1.0 mm
09:57 PM 31.6°F-0.2°C 28.2°F-2.1°C 87% 3.0 mph NW4.8 kmh NW 8.0 mph12.9 kmh 30.32 in1026.8 mb 0.00 in0.0 mm 0.00 in0.0 mm 0.04 in1.0 mm
10:00 PM 31.8°F-0.1°C 28.4°F-2.0°C 87% 3.0 mph NW4.8 kmh NW 8.0 mph12.9 kmh 30.32 in1026.8 mb 0.00 in0.0 mm 0.00 in0.0 mm 0.04 in1.0 mm
10:03 PM 31.6°F-0.2°C 28.2°F-2.1°C 87% 2.0 mph NW3.2 kmh NW 6.0 mph9.7 kmh 30.32 in1026.8 mb 0.00 in0.0 mm 0.00 in0.0 mm 0.04 in1.0 mm
10:06 PM 31.6°F-0.2°C 28.2°F-2.1°C 87% 2.0 mph NW3.2 kmh NW 6.0 mph9.7 kmh 30.32 in1026.8 mb 0.00 in0.0 mm 0.00 in0.0 mm 0.04 in1.0 mm
10:09 PM 31.6°F-0.2°C 28.2°F-2.1°C 87% 2.0 mph NW3.2 kmh NW 6.0 mph9.7 kmh 30.32 in1026.8 mb 0.00 in0.0 mm 0.00 in0.0 mm 0.04 in1.0 mm
10:12 PM 31.6°F-0.2°C 28.2°F-2.1°C 87% 2.0 mph NW3.2 kmh NW 4.0 mph6.4 kmh 30.32 in1026.8 mb 0.00 in0.0 mm 0.00 in0.0 mm 0.04 in1.0 mm
10:15 PM 31.6°F-0.2°C 28.2°F-2.1°C 87% 2.0 mph NW3.2 kmh NW 4.0 mph6.4 kmh 30.32 in1026.8 mb 0.00 in0.0 mm 0.00 in0.0 mm 0.04 in1.0 mm
10:18 PM 31.5°F-0.3°C 27.7°F-2.4°C 86% 1.0 mph NW1.6 kmh NW 4.0 mph6.4 kmh 30.32 in1026.8 mb 0.00 in0.0 mm 0.00 in0.0 mm 0.04 in1.0 mm
10:21 PM 31.3°F-0.4°C 27.5°F-2.5°C 86% 1.0 mph NW1.6 kmh NW 2.0 mph3.2 kmh 30.32 in1026.8 mb 0.00 in0.0 mm 0.00 in0.0 mm 0.04 in1.0 mm
10:24 PM 30.9°F-0.6°C 27.3°F-2.6°C 86% 1.0 mph WNW1.6 kmh WNW 4.0 mph6.4 kmh 30.32 in1026.8 mb 0.00 in0.0 mm 0.00 in0.0 mm 0.04 in1.0 mm
10:27 PM 30.7°F-0.7°C 27.3°F-2.6°C 87% 1.0 mph WNW1.6 kmh WNW 4.0 mph6.4 kmh 30.32 in1026.8 mb 0.00 in0.0 mm 0.00 in0.0 mm 0.04 in1.0 mm
10:30 PM 30.7°F-0.7°C 27.3°F-2.6°C 87% 1.0 mph WNW1.6 kmh WNW 5.0 mph8.0 kmh 30.32 in1026.8 mb 0.00 in0.0 mm 0.00 in0.0 mm 0.04 in1.0 mm
10:33 PM 30.6°F-0.8°C 27.1°F-2.7°C 87% 1.0 mph WNW1.6 kmh WNW 5.0 mph8.0 kmh 30.32 in1026.8 mb 0.00 in0.0 mm 0.00 in0.0 mm 0.04 in1.0 mm
10:36 PM 30.6°F-0.8°C 27.1°F-2.7°C 87% 1.0 mph WNW1.6 kmh WNW 5.0 mph8.0 kmh 30.32 in1026.8 mb 0.00 in0.0 mm 0.00 in0.0 mm 0.04 in1.0 mm
10:39 PM 30.4°F-0.9°C 27.3°F-2.6°C 88% 1.0 mph WNW1.6 kmh WNW 5.0 mph8.0 kmh 30.32 in1026.8 mb 0.00 in0.0 mm 0.00 in0.0 mm 0.04 in1.0 mm
10:42 PM 30.4°F-0.9°C 27.1°F-2.7°C 88% 1.0 mph WNW1.6 kmh WNW 3.0 mph4.8 kmh 30.32 in1026.8 mb 0.00 in0.0 mm 0.00 in0.0 mm 0.04 in1.0 mm
10:45 PM 30.2°F-1.0°C 27.1°F-2.7°C 88% 2.0 mph WNW3.2 kmh WNW 3.0 mph4.8 kmh 30.32 in1026.8 mb 0.00 in0.0 mm 0.00 in0.0 mm 0.04 in1.0 mm
10:48 PM 30.2°F-1.0°C 27.1°F-2.7°C 88% 2.0 mph WNW3.2 kmh WNW 3.0 mph4.8 kmh 30.32 in1026.8 mb 0.00 in0.0 mm 0.00 in0.0 mm 0.04 in1.0 mm
10:51 PM 30.2°F-1.0°C 27.1°F-2.7°C 88% 2.0 mph WNW3.2 kmh WNW 3.0 mph4.8 kmh 30.32 in1026.8 mb 0.00 in0.0 mm 0.00 in0.0 mm 0.04 in1.0 mm
10:54 PM 30.2°F-1.0°C 27.3°F-2.6°C 89% 2.0 mph WNW3.2 kmh WNW 4.0 mph6.4 kmh 30.32 in1026.8 mb 0.00 in0.0 mm 0.00 in0.0 mm 0.04 in1.0 mm
10:57 PM 30.2°F-1.0°C 27.3°F-2.6°C 89% 2.0 mph NW3.2 kmh NW 4.0 mph6.4 kmh 30.32 in1026.8 mb 0.00 in0.0 mm 0.00 in0.0 mm 0.04 in1.0 mm
11:00 PM 30.4°F-0.9°C 27.9°F-2.3°C 90% 2.0 mph NW3.2 kmh NW 4.0 mph6.4 kmh 30.32 in1026.8 mb 0.00 in0.0 mm 0.00 in0.0 mm 0.04 in1.0 mm
11:03 PM 30.4°F-0.9°C 27.5°F-2.5°C 89% 2.0 mph NW3.2 kmh NW 3.0 mph4.8 kmh 30.31 in1026.4 mb 0.00 in0.0 mm 0.00 in0.0 mm 0.04 in1.0 mm
11:06 PM 30.4°F-0.9°C 27.9°F-2.3°C 90% 2.0 mph NW3.2 kmh NW 4.0 mph6.4 kmh 30.31 in1026.4 mb 0.00 in0.0 mm 0.00 in0.0 mm 0.04 in1.0 mm
11:09 PM 30.6°F-0.8°C 28.0°F-2.2°C 90% 2.0 mph WNW3.2 kmh WNW 4.0 mph6.4 kmh 30.31 in1026.4 mb 0.00 in0.0 mm 0.00 in0.0 mm 0.04 in1.0 mm
11:12 PM 30.7°F-0.7°C 28.4°F-2.0°C 91% 2.0 mph W3.2 kmh W 6.0 mph9.7 kmh 30.31 in1026.4 mb 0.00 in0.0 mm 0.00 in0.0 mm 0.04 in1.0 mm
11:15 PM 31.1°F-0.5°C 28.8°F-1.8°C 91% 2.0 mph WNW3.2 kmh WNW 6.0 mph9.7 kmh 30.31 in1026.4 mb 0.00 in0.0 mm 0.00 in0.0 mm 0.04 in1.0 mm
11:18 PM 31.5°F-0.3°C 29.1°F-1.6°C 91% 3.0 mph WNW4.8 kmh WNW 7.0 mph11.3 kmh 30.31 in1026.4 mb 0.00 in0.0 mm 0.00 in0.0 mm 0.04 in1.0 mm
11:21 PM 31.6°F-0.2°C 29.3°F-1.5°C 91% 2.0 mph NW3.2 kmh NW 7.0 mph11.3 kmh 30.31 in1026.4 mb 0.00 in0.0 mm 0.00 in0.0 mm 0.04 in1.0 mm
11:24 PM 32.0°F0.0°C 29.7°F-1.3°C 91% 3.0 mph NW4.8 kmh NW 7.0 mph11.3 kmh 30.31 in1026.4 mb 0.00 in0.0 mm 0.00 in0.0 mm 0.04 in1.0 mm
11:27 PM 32.4°F0.2°C 30.0°F-1.1°C 91% 3.0 mph NW4.8 kmh NW 7.0 mph11.3 kmh 30.31 in1026.4 mb 0.00 in0.0 mm 0.00 in0.0 mm 0.04 in1.0 mm
11:30 PM 32.5°F0.3°C 30.2°F-1.0°C 91% 3.0 mph NW4.8 kmh NW 7.0 mph11.3 kmh 30.31 in1026.4 mb 0.00 in0.0 mm 0.00 in0.0 mm 0.04 in1.0 mm
11:33 PM 32.5°F0.3°C 30.2°F-1.0°C 91% 3.0 mph WNW4.8 kmh WNW 7.0 mph11.3 kmh 30.31 in1026.4 mb 0.00 in0.0 mm 0.00 in0.0 mm 0.04 in1.0 mm
11:36 PM 32.7°F0.4°C 30.2°F-1.0°C 90% 2.0 mph WNW3.2 kmh WNW 7.0 mph11.3 kmh 30.31 in1026.4 mb 0.00 in0.0 mm 0.00 in0.0 mm 0.04 in1.0 mm
11:39 PM 32.9°F0.5°C 30.2°F-1.0°C 90% 2.0 mph WNW3.2 kmh WNW 6.0 mph9.7 kmh 30.31 in1026.4 mb 0.00 in0.0 mm 0.00 in0.0 mm 0.04 in1.0 mm
11:42 PM 32.9°F0.5°C 30.2°F-1.0°C 90% 2.0 mph WNW3.2 kmh WNW 6.0 mph9.7 kmh 30.31 in1026.4 mb 0.00 in0.0 mm 0.00 in0.0 mm 0.04 in1.0 mm
11:45 PM 32.9°F0.5°C 30.0°F-1.1°C 89% 2.0 mph WNW3.2 kmh WNW 6.0 mph9.7 kmh 30.31 in1026.4 mb 0.00 in0.0 mm 0.00 in0.0 mm 0.04 in1.0 mm
11:48 PM 32.7°F0.4°C 29.8°F-1.2°C 89% 2.0 mph WNW3.2 kmh WNW 6.0 mph9.7 kmh 30.31 in1026.4 mb 0.00 in0.0 mm 0.00 in0.0 mm 0.04 in1.0 mm
11:51 PM 32.5°F0.3°C 29.7°F-1.3°C 89% 2.0 mph WNW3.2 kmh WNW 6.0 mph9.7 kmh 30.31 in1026.4 mb 0.00 in0.0 mm 0.00 in0.0 mm 0.04 in1.0 mm
11:54 PM 32.2°F0.1°C 29.1°F-1.6°C 88% 2.0 mph WNW3.2 kmh WNW 6.0 mph9.7 kmh 30.32 in1026.8 mb 0.00 in0.0 mm 0.00 in0.0 mm 0.04 in1.0 mm
11:57 PM 32.0°F0.0°C 28.8°F-1.8°C 88% 2.0 mph W3.2 kmh W 4.0 mph6.4 kmh 30.32 in1026.8 mb 0.00 in0.0 mm 0.00 in0.0 mm 0.04 in1.0 mm